<?xml version="1.0" encoding="UTF-8" standalone="no" ?>
<gpx xmlns="http://www.topografix.com/GPX/1/1" creator="MapSource 6.16.3" version="1.1" xmlns:xsi="http://www.w3.org/2001/XMLSchema-instance" xsi:schemaLocation="http://www.topografix.com/GPX/1/1 http://www.topografix.com/GPX/1/1/gpx.xsd">

  <metadata>
    <link href="http://www.garmin.com">
      <text>Garmin International</text>
    </link>
    <time>2016-09-17T08:15:16Z</time>
    <bounds maxlat="42.888972759246826" maxlon="10.801019668579102" minlat="42.845563888549805" minlon="10.768768787384033"/>
  </metadata>

  <wpt lat="42.888966640457511" lon="10.790866669267416">
    <name>PARTENZA</name>
    <sym>Trail Head</sym>
    <extensions>
      <gpxx:WaypointExtension xmlns:gpxx="http://www.garmin.com/xmlschemas/GpxExtensions/v3">
        <gpxx:DisplayMode>SymbolAndName</gpxx:DisplayMode>
      </gpxx:WaypointExtension>
    </extensions>
  </wpt>

  <trk>
    <name>ACTIVE LOG</name>
    <trkseg>
      <trkpt lat="42.888972759246826" lon="10.790870189666748">
        <ele>12.6343994140625</ele>
        <time>2007-08-23T08:13:39Z</time>
      </trkpt>
      <trkpt lat="42.888822555541992" lon="10.79082727432251">
        <ele>11.6732177734375</ele>
        <time>2007-08-23T08:13:57Z</time>
      </trkpt>
      <trkpt lat="42.888801097869873" lon="10.790634155273438">
        <ele>11.6732177734375</ele>
        <time>2007-08-23T08:14:05Z</time>
      </trkpt>
      <trkpt lat="42.888715267181396" lon="10.790226459503174">
        <ele>12.15380859375</ele>
        <time>2007-08-23T08:14:16Z</time>
      </trkpt>
      <trkpt lat="42.888565063476562" lon="10.789604187011719">
        <ele>12.6343994140625</ele>
        <time>2007-08-23T08:14:29Z</time>
      </trkpt>
      <trkpt lat="42.88837194442749" lon="10.788767337799072">
        <ele>11.1925048828125</ele>
        <time>2007-08-23T08:14:46Z</time>
      </trkpt>
      <trkpt lat="42.888178825378418" lon="10.788209438323975">
        <ele>9.7506103515625</ele>
        <time>2007-08-23T08:14:56Z</time>
      </trkpt>
      <trkpt lat="42.887899875640869" lon="10.78782320022583">
        <ele>8.30859375</ele>
        <time>2007-08-23T08:15:05Z</time>
      </trkpt>
      <trkpt lat="42.887556552886963" lon="10.787479877471924">
        <ele>6.866455078125</ele>
        <time>2007-08-23T08:15:16Z</time>
      </trkpt>
      <trkpt lat="42.887170314788818" lon="10.787115097045898">
        <ele>5.9052734375</ele>
        <time>2007-08-23T08:15:28Z</time>
      </trkpt>
      <trkpt lat="42.886741161346436" lon="10.786728858947754">
        <ele>5.424560546875</ele>
        <time>2007-08-23T08:15:41Z</time>
      </trkpt>
      <trkpt lat="42.8861403465271" lon="10.786192417144775">
        <ele>5.424560546875</ele>
        <time>2007-08-23T08:15:58Z</time>
      </trkpt>
      <trkpt lat="42.885818481445313" lon="10.785934925079346">
        <ele>5.424560546875</ele>
        <time>2007-08-23T08:16:07Z</time>
      </trkpt>
      <trkpt lat="42.88538932800293" lon="10.785613059997559">
        <ele>5.424560546875</ele>
        <time>2007-08-23T08:16:19Z</time>
      </trkpt>
      <trkpt lat="42.884831428527832" lon="10.78507661819458">
        <ele>4.94384765625</ele>
        <time>2007-08-23T08:16:36Z</time>
      </trkpt>
      <trkpt lat="42.884316444396973" lon="10.784604549407959">
        <ele>4.94384765625</ele>
        <time>2007-08-23T08:16:51Z</time>
      </trkpt>
      <trkpt lat="42.883930206298828" lon="10.784153938293457">
        <ele>5.424560546875</ele>
        <time>2007-08-23T08:17:03Z</time>
      </trkpt>
      <trkpt lat="42.883565425872803" lon="10.783681869506836">
        <ele>5.9052734375</ele>
        <time>2007-08-23T08:17:16Z</time>
      </trkpt>
      <trkpt lat="42.883286476135254" lon="10.783360004425049">
        <ele>6.3858642578125</ele>
        <time>2007-08-23T08:17:26Z</time>
      </trkpt>
      <trkpt lat="42.882900238037109" lon="10.783123970031738">
        <ele>7.827880859375</ele>
        <time>2007-08-23T08:17:38Z</time>
      </trkpt>
      <trkpt lat="42.88264274597168" lon="10.782887935638428">
        <ele>7.827880859375</ele>
        <time>2007-08-23T08:17:47Z</time>
      </trkpt>
      <trkpt lat="42.88264274597168" lon="10.782630443572998">
        <ele>7.827880859375</ele>
        <time>2007-08-23T08:17:52Z</time>
      </trkpt>
      <trkpt lat="42.882835865020752" lon="10.782308578491211">
        <ele>7.34716796875</ele>
        <time>2007-08-23T08:18:00Z</time>
      </trkpt>
      <trkpt lat="42.882964611053467" lon="10.782008171081543">
        <ele>6.866455078125</ele>
        <time>2007-08-23T08:18:07Z</time>
      </trkpt>
      <trkpt lat="42.882964611053467" lon="10.781643390655518">
        <ele>8.30859375</ele>
        <time>2007-08-23T08:18:16Z</time>
      </trkpt>
      <trkpt lat="42.882857322692871" lon="10.781450271606445">
        <ele>10.231201171875</ele>
        <time>2007-08-23T08:18:22Z</time>
      </trkpt>
      <trkpt lat="42.882621288299561" lon="10.781171321868896">
        <ele>12.15380859375</ele>
        <time>2007-08-23T08:18:32Z</time>
      </trkpt>
      <trkpt lat="42.882256507873535" lon="10.780870914459229">
        <ele>11.6732177734375</ele>
        <time>2007-08-23T08:18:44Z</time>
      </trkpt>
      <trkpt lat="42.881999015808105" lon="10.780763626098633">
        <ele>12.15380859375</ele>
        <time>2007-08-23T08:18:52Z</time>
      </trkpt>
      <trkpt lat="42.881741523742676" lon="10.780699253082275">
        <ele>14.076416015625</ele>
        <time>2007-08-23T08:19:02Z</time>
      </trkpt>
      <trkpt lat="42.881462574005127" lon="10.78059196472168">
        <ele>17.441162109375</ele>
        <time>2007-08-23T08:19:14Z</time>
      </trkpt>
      <trkpt lat="42.881226539611816" lon="10.780441761016846">
        <ele>19.36376953125</ele>
        <time>2007-08-23T08:19:25Z</time>
      </trkpt>
      <trkpt lat="42.881054878234863" lon="10.780313014984131">
        <ele>21.286376953125</ele>
        <time>2007-08-23T08:19:34Z</time>
      </trkpt>
      <trkpt lat="42.880861759185791" lon="10.780141353607178">
        <ele>22.24755859375</ele>
        <time>2007-08-23T08:19:44Z</time>
      </trkpt>
      <trkpt lat="42.880711555480957" lon="10.779991149902344">
        <ele>22.728271484375</ele>
        <time>2007-08-23T08:19:53Z</time>
      </trkpt>
      <trkpt lat="42.880496978759766" lon="10.779819488525391">
        <ele>23.208984375</ele>
        <time>2007-08-23T08:20:04Z</time>
      </trkpt>
      <trkpt lat="42.880303859710693" lon="10.779647827148438">
        <ele>27.0543212890625</ele>
        <time>2007-08-23T08:20:14Z</time>
      </trkpt>
      <trkpt lat="42.88013219833374" lon="10.779476165771484">
        <ele>28.0155029296875</ele>
        <time>2007-08-23T08:20:25Z</time>
      </trkpt>
      <trkpt lat="42.880024909973145" lon="10.779454708099365">
        <ele>28.9769287109375</ele>
        <time>2007-08-23T08:20:33Z</time>
      </trkpt>
      <trkpt lat="42.879874706268311" lon="10.779304504394531">
        <ele>29.9381103515625</ele>
        <time>2007-08-23T08:20:45Z</time>
      </trkpt>
      <trkpt lat="42.879788875579834" lon="10.779068470001221">
        <ele>31.8607177734375</ele>
        <time>2007-08-23T08:20:56Z</time>
      </trkpt>
      <trkpt lat="42.879703044891357" lon="10.778746604919434">
        <ele>33.783447265625</ele>
        <time>2007-08-23T08:21:08Z</time>
      </trkpt>
      <trkpt lat="42.879574298858643" lon="10.778424739837646">
        <ele>35.7060546875</ele>
        <time>2007-08-23T08:21:21Z</time>
      </trkpt>
      <trkpt lat="42.879424095153809" lon="10.778124332427979">
        <ele>36.186767578125</ele>
        <time>2007-08-23T08:21:34Z</time>
      </trkpt>
      <trkpt lat="42.879295349121094" lon="10.778059959411621">
        <ele>36.66748046875</ele>
        <time>2007-08-23T08:21:42Z</time>
      </trkpt>
      <trkpt lat="42.879080772399902" lon="10.778102874755859">
        <ele>36.66748046875</ele>
        <time>2007-08-23T08:21:52Z</time>
      </trkpt>
      <trkpt lat="42.878780364990234" lon="10.778167247772217">
        <ele>36.66748046875</ele>
        <time>2007-08-23T08:21:59Z</time>
      </trkpt>
      <trkpt lat="42.87839412689209" lon="10.778317451477051">
        <ele>34.744873046875</ele>
        <time>2007-08-23T08:22:09Z</time>
      </trkpt>
      <trkpt lat="42.878286838531494" lon="10.778360366821289">
        <ele>34.26416015625</ele>
        <time>2007-08-23T08:22:12Z</time>
      </trkpt>
      <trkpt lat="42.877922058105469" lon="10.778231620788574">
        <ele>33.783447265625</ele>
        <time>2007-08-23T08:22:20Z</time>
      </trkpt>
      <trkpt lat="42.87764310836792" lon="10.778059959411621">
        <ele>33.783447265625</ele>
        <time>2007-08-23T08:22:27Z</time>
      </trkpt>
      <trkpt lat="42.877449989318848" lon="10.77784538269043">
        <ele>33.3028564453125</ele>
        <time>2007-08-23T08:22:33Z</time>
      </trkpt>
      <trkpt lat="42.877192497253418" lon="10.777609348297119">
        <ele>32.341552734375</ele>
        <time>2007-08-23T08:22:41Z</time>
      </trkpt>
      <trkpt lat="42.877063751220703" lon="10.777544975280762">
        <ele>32.822265625</ele>
        <time>2007-08-23T08:22:44Z</time>
      </trkpt>
      <trkpt lat="42.876291275024414" lon="10.777480602264404">
        <ele>32.341552734375</ele>
        <time>2007-08-23T08:22:59Z</time>
      </trkpt>
      <trkpt lat="42.875926494598389" lon="10.777480602264404">
        <ele>32.822265625</ele>
        <time>2007-08-23T08:23:07Z</time>
      </trkpt>
      <trkpt lat="42.875754833221436" lon="10.777502059936523">
        <ele>33.783447265625</ele>
        <time>2007-08-23T08:23:11Z</time>
      </trkpt>
      <trkpt lat="42.875325679779053" lon="10.777716636657715">
        <ele>33.783447265625</ele>
        <time>2007-08-23T08:23:22Z</time>
      </trkpt>
      <trkpt lat="42.874939441680908" lon="10.777888298034668">
        <ele>35.2254638671875</ele>
        <time>2007-08-23T08:23:32Z</time>
      </trkpt>
      <trkpt lat="42.874467372894287" lon="10.777952671051025">
        <ele>36.186767578125</ele>
        <time>2007-08-23T08:23:45Z</time>
      </trkpt>
      <trkpt lat="42.87440299987793" lon="10.777952671051025">
        <ele>36.186767578125</ele>
        <time>2007-08-23T08:23:47Z</time>
      </trkpt>
      <trkpt lat="42.874488830566406" lon="10.777652263641357">
        <ele>36.186767578125</ele>
        <time>2007-08-23T08:23:55Z</time>
      </trkpt>
      <trkpt lat="42.874681949615479" lon="10.777351856231689">
        <ele>36.186767578125</ele>
        <time>2007-08-23T08:24:02Z</time>
      </trkpt>
      <trkpt lat="42.874939441680908" lon="10.776793956756592">
        <ele>36.66748046875</ele>
        <time>2007-08-23T08:24:15Z</time>
      </trkpt>
      <trkpt lat="42.875111103057861" lon="10.776278972625732">
        <ele>36.66748046875</ele>
        <time>2007-08-23T08:24:27Z</time>
      </trkpt>
      <trkpt lat="42.875239849090576" lon="10.775399208068848">
        <ele>35.7060546875</ele>
        <time>2007-08-23T08:24:46Z</time>
      </trkpt>
      <trkpt lat="42.8751540184021" lon="10.775249004364014">
        <ele>36.186767578125</ele>
        <time>2007-08-23T08:24:50Z</time>
      </trkpt>
      <trkpt lat="42.874875068664551" lon="10.77509880065918">
        <ele>38.109375</ele>
        <time>2007-08-23T08:24:59Z</time>
      </trkpt>
      <trkpt lat="42.874596118927002" lon="10.774970054626465">
        <ele>38.109375</ele>
        <time>2007-08-23T08:25:07Z</time>
      </trkpt>
      <trkpt lat="42.874445915222168" lon="10.77484130859375">
        <ele>37.628662109375</ele>
        <time>2007-08-23T08:25:10Z</time>
      </trkpt>
      <trkpt lat="42.874081134796143" lon="10.774798393249512">
        <ele>35.2254638671875</ele>
        <time>2007-08-23T08:25:15Z</time>
      </trkpt>
      <trkpt lat="42.873351573944092" lon="10.775012969970703">
        <ele>33.783447265625</ele>
        <time>2007-08-23T08:25:24Z</time>
      </trkpt>
      <trkpt lat="42.873265743255615" lon="10.775055885314941">
        <ele>33.783447265625</ele>
        <time>2007-08-23T08:25:25Z</time>
      </trkpt>
      <trkpt lat="42.873115539550781" lon="10.77509880065918">
        <ele>33.783447265625</ele>
        <time>2007-08-23T08:25:27Z</time>
      </trkpt>
      <trkpt lat="42.872943878173828" lon="10.77509880065918">
        <ele>33.783447265625</ele>
        <time>2007-08-23T08:25:29Z</time>
      </trkpt>
      <trkpt lat="42.872729301452637" lon="10.774905681610107">
        <ele>33.3028564453125</ele>
        <time>2007-08-23T08:25:33Z</time>
      </trkpt>
      <trkpt lat="42.872450351715088" lon="10.774519443511963">
        <ele>33.783447265625</ele>
        <time>2007-08-23T08:25:41Z</time>
      </trkpt>
      <trkpt lat="42.872257232666016" lon="10.774390697479248">
        <ele>34.744873046875</ele>
        <time>2007-08-23T08:25:47Z</time>
      </trkpt>
      <trkpt lat="42.871999740600586" lon="10.774497985839844">
        <ele>34.744873046875</ele>
        <time>2007-08-23T08:25:56Z</time>
      </trkpt>
      <trkpt lat="42.871549129486084" lon="10.774734020233154">
        <ele>34.744873046875</ele>
        <time>2007-08-23T08:26:11Z</time>
      </trkpt>
      <trkpt lat="42.871248722076416" lon="10.774927139282227">
        <ele>34.744873046875</ele>
        <time>2007-08-23T08:26:21Z</time>
      </trkpt>
      <trkpt lat="42.87114143371582" lon="10.774712562561035">
        <ele>35.7060546875</ele>
        <time>2007-08-23T08:26:27Z</time>
      </trkpt>
      <trkpt lat="42.871184349060059" lon="10.774476528167725">
        <ele>35.2254638671875</ele>
        <time>2007-08-23T08:26:32Z</time>
      </trkpt>
      <trkpt lat="42.871248722076416" lon="10.774197578430176">
        <ele>35.2254638671875</ele>
        <time>2007-08-23T08:26:37Z</time>
      </trkpt>
      <trkpt lat="42.871356010437012" lon="10.773661136627197">
        <ele>35.2254638671875</ele>
        <time>2007-08-23T08:26:47Z</time>
      </trkpt>
      <trkpt lat="42.871527671813965" lon="10.773274898529053">
        <ele>35.2254638671875</ele>
        <time>2007-08-23T08:26:56Z</time>
      </trkpt>
      <trkpt lat="42.871677875518799" lon="10.772674083709717">
        <ele>35.7060546875</ele>
        <time>2007-08-23T08:27:08Z</time>
      </trkpt>
      <trkpt lat="42.871613502502441" lon="10.772395133972168">
        <ele>35.7060546875</ele>
        <time>2007-08-23T08:27:14Z</time>
      </trkpt>
      <trkpt lat="42.871291637420654" lon="10.771944522857666">
        <ele>36.66748046875</ele>
        <time>2007-08-23T08:27:26Z</time>
      </trkpt>
      <trkpt lat="42.870926856994629" lon="10.771493911743164">
        <ele>36.66748046875</ele>
        <time>2007-08-23T08:27:39Z</time>
      </trkpt>
      <trkpt lat="42.870626449584961" lon="10.7710862159729">
        <ele>36.66748046875</ele>
        <time>2007-08-23T08:27:50Z</time>
      </trkpt>
      <trkpt lat="42.870476245880127" lon="10.770978927612305">
        <ele>37.1480712890625</ele>
        <time>2007-08-23T08:27:54Z</time>
      </trkpt>
      <trkpt lat="42.870025634765625" lon="10.770742893218994">
        <ele>36.66748046875</ele>
        <time>2007-08-23T08:28:05Z</time>
      </trkpt>
      <trkpt lat="42.869575023651123" lon="10.77033519744873">
        <ele>37.1480712890625</ele>
        <time>2007-08-23T08:28:17Z</time>
      </trkpt>
      <trkpt lat="42.869081497192383" lon="10.769798755645752">
        <ele>37.1480712890625</ele>
        <time>2007-08-23T08:28:31Z</time>
      </trkpt>
      <trkpt lat="42.86890983581543" lon="10.769584178924561">
        <ele>37.1480712890625</ele>
        <time>2007-08-23T08:28:36Z</time>
      </trkpt>
      <trkpt lat="42.868630886077881" lon="10.769627094268799">
        <ele>37.628662109375</ele>
        <time>2007-08-23T08:28:43Z</time>
      </trkpt>
      <trkpt lat="42.868566513061523" lon="10.769734382629395">
        <ele>37.628662109375</ele>
        <time>2007-08-23T08:28:46Z</time>
      </trkpt>
      <trkpt lat="42.868437767028809" lon="10.77009916305542">
        <ele>36.186767578125</ele>
        <time>2007-08-23T08:28:55Z</time>
      </trkpt>
      <trkpt lat="42.868351936340332" lon="10.770549774169922">
        <ele>34.26416015625</ele>
        <time>2007-08-23T08:29:05Z</time>
      </trkpt>
      <trkpt lat="42.868309020996094" lon="10.771172046661377">
        <ele>33.3028564453125</ele>
        <time>2007-08-23T08:29:17Z</time>
      </trkpt>
      <trkpt lat="42.868115901947021" lon="10.771751403808594">
        <ele>33.3028564453125</ele>
        <time>2007-08-23T08:29:28Z</time>
      </trkpt>
      <trkpt lat="42.867815494537354" lon="10.772180557250977">
        <ele>32.822265625</ele>
        <time>2007-08-23T08:29:40Z</time>
      </trkpt>
      <trkpt lat="42.867622375488281" lon="10.772266387939453">
        <ele>31.8607177734375</ele>
        <time>2007-08-23T08:29:47Z</time>
      </trkpt>
      <trkpt lat="42.867321968078613" lon="10.772244930267334">
        <ele>32.341552734375</ele>
        <time>2007-08-23T08:29:55Z</time>
      </trkpt>
      <trkpt lat="42.866935729980469" lon="10.772137641906738">
        <ele>30.8995361328125</ele>
        <time>2007-08-23T08:30:04Z</time>
      </trkpt>
      <trkpt lat="42.866721153259277" lon="10.772030353546143">
        <ele>30.4188232421875</ele>
        <time>2007-08-23T08:30:09Z</time>
      </trkpt>
      <trkpt lat="42.866549491882324" lon="10.772008895874023">
        <ele>28.9769287109375</ele>
        <time>2007-08-23T08:30:12Z</time>
      </trkpt>
      <trkpt lat="42.866334915161133" lon="10.772180557250977">
        <ele>28.4962158203125</ele>
        <time>2007-08-23T08:30:18Z</time>
      </trkpt>
      <trkpt lat="42.866013050079346" lon="10.772480964660645">
        <ele>28.4962158203125</ele>
        <time>2007-08-23T08:30:28Z</time>
      </trkpt>
      <trkpt lat="42.865691184997559" lon="10.772652626037598">
        <ele>28.4962158203125</ele>
        <time>2007-08-23T08:30:37Z</time>
      </trkpt>
      <trkpt lat="42.865283489227295" lon="10.772652626037598">
        <ele>28.0155029296875</ele>
        <time>2007-08-23T08:30:47Z</time>
      </trkpt>
      <trkpt lat="42.864961624145508" lon="10.772459506988525">
        <ele>26.0928955078125</ele>
        <time>2007-08-23T08:30:57Z</time>
      </trkpt>
      <trkpt lat="42.864639759063721" lon="10.771944522857666">
        <ele>27.534912109375</ele>
        <time>2007-08-23T08:31:10Z</time>
      </trkpt>
      <trkpt lat="42.864360809326172" lon="10.771708488464355">
        <ele>28.9769287109375</ele>
        <time>2007-08-23T08:31:20Z</time>
      </trkpt>
      <trkpt lat="42.864081859588623" lon="10.771536827087402">
        <ele>29.45751953125</ele>
        <time>2007-08-23T08:31:32Z</time>
      </trkpt>
      <trkpt lat="42.863781452178955" lon="10.771429538726807">
        <ele>30.4188232421875</ele>
        <time>2007-08-23T08:31:43Z</time>
      </trkpt>
      <trkpt lat="42.863395214080811" lon="10.771279335021973">
        <ele>32.341552734375</ele>
        <time>2007-08-23T08:31:58Z</time>
      </trkpt>
      <trkpt lat="42.863094806671143" lon="10.77110767364502">
        <ele>33.783447265625</ele>
        <time>2007-08-23T08:32:12Z</time>
      </trkpt>
      <trkpt lat="42.862880229949951" lon="10.771021842956543">
        <ele>33.783447265625</ele>
        <time>2007-08-23T08:32:20Z</time>
      </trkpt>
      <trkpt lat="42.862687110900879" lon="10.770807266235352">
        <ele>33.783447265625</ele>
        <time>2007-08-23T08:32:25Z</time>
      </trkpt>
      <trkpt lat="42.862472534179688" lon="10.770485401153564">
        <ele>33.783447265625</ele>
        <time>2007-08-23T08:32:31Z</time>
      </trkpt>
      <trkpt lat="42.862236499786377" lon="10.770120620727539">
        <ele>33.3028564453125</ele>
        <time>2007-08-23T08:32:41Z</time>
      </trkpt>
      <trkpt lat="42.861957550048828" lon="10.769991874694824">
        <ele>34.26416015625</ele>
        <time>2007-08-23T08:32:51Z</time>
      </trkpt>
      <trkpt lat="42.861571311950684" lon="10.769777297973633">
        <ele>36.66748046875</ele>
        <time>2007-08-23T08:33:07Z</time>
      </trkpt>
      <trkpt lat="42.861292362213135" lon="10.769541263580322">
        <ele>36.186767578125</ele>
        <time>2007-08-23T08:33:15Z</time>
      </trkpt>
      <trkpt lat="42.861206531524658" lon="10.769498348236084">
        <ele>36.186767578125</ele>
        <time>2007-08-23T08:33:16Z</time>
      </trkpt>
      <trkpt lat="42.860841751098633" lon="10.769133567810059">
        <ele>34.744873046875</ele>
        <time>2007-08-23T08:33:21Z</time>
      </trkpt>
      <trkpt lat="42.86067008972168" lon="10.769004821777344">
        <ele>34.26416015625</ele>
        <time>2007-08-23T08:33:23Z</time>
      </trkpt>
      <trkpt lat="42.860305309295654" lon="10.768811702728271">
        <ele>33.3028564453125</ele>
        <time>2007-08-23T08:33:29Z</time>
      </trkpt>
      <trkpt lat="42.86015510559082" lon="10.768768787384033">
        <ele>34.26416015625</ele>
        <time>2007-08-23T08:33:33Z</time>
      </trkpt>
      <trkpt lat="42.859940528869629" lon="10.76885461807251">
        <ele>35.2254638671875</ele>
        <time>2007-08-23T08:33:41Z</time>
      </trkpt>
      <trkpt lat="42.859790325164795" lon="10.769026279449463">
        <ele>35.7060546875</ele>
        <time>2007-08-23T08:33:48Z</time>
      </trkpt>
      <trkpt lat="42.85966157913208" lon="10.769433975219727">
        <ele>34.744873046875</ele>
        <time>2007-08-23T08:33:57Z</time>
      </trkpt>
      <trkpt lat="42.859489917755127" lon="10.769884586334229">
        <ele>31.8607177734375</ele>
        <time>2007-08-23T08:34:06Z</time>
      </trkpt>
      <trkpt lat="42.859447002410889" lon="10.770056247711182">
        <ele>31.380126953125</ele>
        <time>2007-08-23T08:34:09Z</time>
      </trkpt>
      <trkpt lat="42.85942554473877" lon="10.77033519744873">
        <ele>29.45751953125</ele>
        <time>2007-08-23T08:34:13Z</time>
      </trkpt>
      <trkpt lat="42.85940408706665" lon="10.770485401153564">
        <ele>28.4962158203125</ele>
        <time>2007-08-23T08:34:15Z</time>
      </trkpt>
      <trkpt lat="42.85940408706665" lon="10.770914554595947">
        <ele>25.6123046875</ele>
        <time>2007-08-23T08:34:21Z</time>
      </trkpt>
      <trkpt lat="42.859468460083008" lon="10.771579742431641">
        <ele>19.8443603515625</ele>
        <time>2007-08-23T08:34:29Z</time>
      </trkpt>
      <trkpt lat="42.859575748443604" lon="10.772202014923096">
        <ele>16.96044921875</ele>
        <time>2007-08-23T08:34:35Z</time>
      </trkpt>
      <trkpt lat="42.859854698181152" lon="10.772738456726074">
        <ele>15.9990234375</ele>
        <time>2007-08-23T08:34:41Z</time>
      </trkpt>
      <trkpt lat="42.859983444213867" lon="10.772974491119385">
        <ele>15.5184326171875</ele>
        <time>2007-08-23T08:34:44Z</time>
      </trkpt>
      <trkpt lat="42.859361171722412" lon="10.773274898529053">
        <ele>16.479736328125</ele>
        <time>2007-08-23T08:34:51Z</time>
      </trkpt>
      <trkpt lat="42.858996391296387" lon="10.773618221282959">
        <ele>15.9990234375</ele>
        <time>2007-08-23T08:35:01Z</time>
      </trkpt>
      <trkpt lat="42.85865306854248" lon="10.773897171020508">
        <ele>18.40234375</ele>
        <time>2007-08-23T08:35:11Z</time>
      </trkpt>
      <trkpt lat="42.858266830444336" lon="10.774133205413818">
        <ele>16.96044921875</ele>
        <time>2007-08-23T08:35:22Z</time>
      </trkpt>
      <trkpt lat="42.857773303985596" lon="10.774562358856201">
        <ele>16.96044921875</ele>
        <time>2007-08-23T08:35:37Z</time>
      </trkpt>
      <trkpt lat="42.857429981231689" lon="10.774905681610107">
        <ele>16.479736328125</ele>
        <time>2007-08-23T08:35:46Z</time>
      </trkpt>
      <trkpt lat="42.857344150543213" lon="10.774927139282227">
        <ele>16.479736328125</ele>
        <time>2007-08-23T08:35:48Z</time>
      </trkpt>
      <trkpt lat="42.857108116149902" lon="10.774884223937988">
        <ele>15.9990234375</ele>
        <time>2007-08-23T08:35:55Z</time>
      </trkpt>
      <trkpt lat="42.856764793395996" lon="10.774884223937988">
        <ele>15.0377197265625</ele>
        <time>2007-08-23T08:36:07Z</time>
      </trkpt>
      <trkpt lat="42.856507301330566" lon="10.774927139282227">
        <ele>14.5570068359375</ele>
        <time>2007-08-23T08:36:17Z</time>
      </trkpt>
      <trkpt lat="42.85642147064209" lon="10.775055885314941">
        <ele>15.9990234375</ele>
        <time>2007-08-23T08:36:27Z</time>
      </trkpt>
      <trkpt lat="42.85642147064209" lon="10.775206089019775">
        <ele>16.479736328125</ele>
        <time>2007-08-23T08:36:38Z</time>
      </trkpt>
      <trkpt lat="42.85642147064209" lon="10.775206089019775">
        <ele>21.286376953125</ele>
        <time>2007-08-23T08:36:47Z</time>
      </trkpt>
      <trkpt lat="42.85642147064209" lon="10.775227546691895">
        <ele>25.1317138671875</ele>
        <time>2007-08-23T08:37:09Z</time>
      </trkpt>
      <trkpt lat="42.85642147064209" lon="10.775227546691895">
        <ele>24.1702880859375</ele>
        <time>2007-08-23T08:37:18Z</time>
      </trkpt>
      <trkpt lat="42.856593132019043" lon="10.775356292724609">
        <ele>25.1317138671875</ele>
        <time>2007-08-23T08:37:29Z</time>
      </trkpt>
      <trkpt lat="42.856743335723877" lon="10.775506496429443">
        <ele>26.0928955078125</ele>
        <time>2007-08-23T08:37:36Z</time>
      </trkpt>
      <trkpt lat="42.857022285461426" lon="10.775871276855469">
        <ele>28.4962158203125</ele>
        <time>2007-08-23T08:37:52Z</time>
      </trkpt>
      <trkpt lat="42.85717248916626" lon="10.776386260986328">
        <ele>29.45751953125</ele>
        <time>2007-08-23T08:38:11Z</time>
      </trkpt>
      <trkpt lat="42.857236862182617" lon="10.776686668395996">
        <ele>28.9769287109375</ele>
        <time>2007-08-23T08:38:23Z</time>
      </trkpt>
      <trkpt lat="42.857258319854736" lon="10.776944160461426">
        <ele>31.380126953125</ele>
        <time>2007-08-23T08:38:35Z</time>
      </trkpt>
      <trkpt lat="42.857279777526855" lon="10.776987075805664">
        <ele>31.8607177734375</ele>
        <time>2007-08-23T08:38:39Z</time>
      </trkpt>
      <trkpt lat="42.857258319854736" lon="10.777137279510498">
        <ele>32.822265625</ele>
        <time>2007-08-23T08:38:45Z</time>
      </trkpt>
      <trkpt lat="42.857301235198975" lon="10.777523517608643">
        <ele>33.3028564453125</ele>
        <time>2007-08-23T08:39:01Z</time>
      </trkpt>
      <trkpt lat="42.857344150543213" lon="10.777802467346191">
        <ele>34.26416015625</ele>
        <time>2007-08-23T08:39:13Z</time>
      </trkpt>
      <trkpt lat="42.857365608215332" lon="10.778124332427979">
        <ele>34.26416015625</ele>
        <time>2007-08-23T08:39:27Z</time>
      </trkpt>
      <trkpt lat="42.857365608215332" lon="10.778532028198242">
        <ele>35.2254638671875</ele>
        <time>2007-08-23T08:39:41Z</time>
      </trkpt>
      <trkpt lat="42.857344150543213" lon="10.778853893280029">
        <ele>36.66748046875</ele>
        <time>2007-08-23T08:39:53Z</time>
      </trkpt>
      <trkpt lat="42.857387065887451" lon="10.779111385345459">
        <ele>37.628662109375</ele>
        <time>2007-08-23T08:40:04Z</time>
      </trkpt>
      <trkpt lat="42.857494354248047" lon="10.779433250427246">
        <ele>38.590087890625</ele>
        <time>2007-08-23T08:40:20Z</time>
      </trkpt>
      <trkpt lat="42.857515811920166" lon="10.779712200164795">
        <ele>40.993408203125</ele>
        <time>2007-08-23T08:40:33Z</time>
      </trkpt>
      <trkpt lat="42.857580184936523" lon="10.780055522918701">
        <ele>43.8773193359375</ele>
        <time>2007-08-23T08:40:48Z</time>
      </trkpt>
      <trkpt lat="42.857708930969238" lon="10.780205726623535">
        <ele>44.838623046875</ele>
        <time>2007-08-23T08:41:02Z</time>
      </trkpt>
      <trkpt lat="42.857773303985596" lon="10.78033447265625">
        <ele>45.7999267578125</ele>
        <time>2007-08-23T08:41:14Z</time>
      </trkpt>
      <trkpt lat="42.857794761657715" lon="10.780420303344727">
        <ele>45.7999267578125</ele>
        <time>2007-08-23T08:41:22Z</time>
      </trkpt>
      <trkpt lat="42.857837677001953" lon="10.780570507049561">
        <ele>47.2418212890625</ele>
        <time>2007-08-23T08:41:38Z</time>
      </trkpt>
      <trkpt lat="42.857902050018311" lon="10.780634880065918">
        <ele>47.2418212890625</ele>
        <time>2007-08-23T08:41:45Z</time>
      </trkpt>
      <trkpt lat="42.857944965362549" lon="10.780849456787109">
        <ele>50.1259765625</ele>
        <time>2007-08-23T08:41:59Z</time>
      </trkpt>
      <trkpt lat="42.857966423034668" lon="10.780956745147705">
        <ele>55.4130859375</ele>
        <time>2007-08-23T08:51:29Z</time>
      </trkpt>
      <trkpt lat="42.857966423034668" lon="10.780956745147705">
        <ele>54.932373046875</ele>
        <time>2007-08-23T08:51:30Z</time>
      </trkpt>
      <trkpt lat="42.857859134674072" lon="10.780699253082275">
        <ele>54.4517822265625</ele>
        <time>2007-08-23T08:51:38Z</time>
      </trkpt>
      <trkpt lat="42.857708930969238" lon="10.780398845672607">
        <ele>54.4517822265625</ele>
        <time>2007-08-23T08:51:47Z</time>
      </trkpt>
      <trkpt lat="42.857601642608643" lon="10.780227184295654">
        <ele>52.5291748046875</ele>
        <time>2007-08-23T08:51:55Z</time>
      </trkpt>
      <trkpt lat="42.857451438903809" lon="10.78007698059082">
        <ele>50.1259765625</ele>
        <time>2007-08-23T08:52:02Z</time>
      </trkpt>
      <trkpt lat="42.857236862182617" lon="10.779819488525391">
        <ele>46.76123046875</ele>
        <time>2007-08-23T08:52:14Z</time>
      </trkpt>
      <trkpt lat="42.85691499710083" lon="10.779390335083008">
        <ele>45.3192138671875</ele>
        <time>2007-08-23T08:52:28Z</time>
      </trkpt>
      <trkpt lat="42.856593132019043" lon="10.778768062591553">
        <ele>43.8773193359375</ele>
        <time>2007-08-23T08:52:41Z</time>
      </trkpt>
      <trkpt lat="42.856528759002686" lon="10.7785964012146">
        <ele>43.3966064453125</ele>
        <time>2007-08-23T08:52:44Z</time>
      </trkpt>
      <trkpt lat="42.856464385986328" lon="10.778510570526123">
        <ele>42.916015625</ele>
        <time>2007-08-23T08:52:46Z</time>
      </trkpt>
      <trkpt lat="42.856314182281494" lon="10.778381824493408">
        <ele>41.9547119140625</ele>
        <time>2007-08-23T08:52:50Z</time>
      </trkpt>
      <trkpt lat="42.856013774871826" lon="10.778403282165527">
        <ele>38.590087890625</ele>
        <time>2007-08-23T08:52:57Z</time>
      </trkpt>
      <trkpt lat="42.85590648651123" lon="10.778424739837646">
        <ele>38.590087890625</ele>
        <time>2007-08-23T08:52:59Z</time>
      </trkpt>
      <trkpt lat="42.855734825134277" lon="10.778446197509766">
        <ele>38.109375</ele>
        <time>2007-08-23T08:53:03Z</time>
      </trkpt>
      <trkpt lat="42.855606079101563" lon="10.778446197509766">
        <ele>38.590087890625</ele>
        <time>2007-08-23T08:53:06Z</time>
      </trkpt>
      <trkpt lat="42.855219841003418" lon="10.778210163116455">
        <ele>36.66748046875</ele>
        <time>2007-08-23T08:53:17Z</time>
      </trkpt>
      <trkpt lat="42.855198383331299" lon="10.777974128723145">
        <ele>36.186767578125</ele>
        <time>2007-08-23T08:53:21Z</time>
      </trkpt>
      <trkpt lat="42.855198383331299" lon="10.777866840362549">
        <ele>36.186767578125</ele>
        <time>2007-08-23T08:53:23Z</time>
      </trkpt>
      <trkpt lat="42.855284214019775" lon="10.777523517608643">
        <ele>36.66748046875</ele>
        <time>2007-08-23T08:53:28Z</time>
      </trkpt>
      <trkpt lat="42.855648994445801" lon="10.776858329772949">
        <ele>35.7060546875</ele>
        <time>2007-08-23T08:53:39Z</time>
      </trkpt>
      <trkpt lat="42.855992317199707" lon="10.776321887969971">
        <ele>30.8995361328125</ele>
        <time>2007-08-23T08:53:50Z</time>
      </trkpt>
      <trkpt lat="42.856121063232422" lon="10.77584981918335">
        <ele>28.0155029296875</ele>
        <time>2007-08-23T08:53:58Z</time>
      </trkpt>
      <trkpt lat="42.856314182281494" lon="10.775377750396729">
        <ele>23.208984375</ele>
        <time>2007-08-23T08:54:06Z</time>
      </trkpt>
      <trkpt lat="42.856400012969971" lon="10.775227546691895">
        <ele>22.24755859375</ele>
        <time>2007-08-23T08:54:09Z</time>
      </trkpt>
      <trkpt lat="42.85642147064209" lon="10.775034427642822">
        <ele>20.8056640625</ele>
        <time>2007-08-23T08:54:13Z</time>
      </trkpt>
      <trkpt lat="42.856378555297852" lon="10.775012969970703">
        <ele>20.324951171875</ele>
        <time>2007-08-23T08:54:14Z</time>
      </trkpt>
      <trkpt lat="42.856035232543945" lon="10.775034427642822">
        <ele>19.36376953125</ele>
        <time>2007-08-23T08:54:24Z</time>
      </trkpt>
      <trkpt lat="42.855777740478516" lon="10.775184631347656">
        <ele>19.36376953125</ele>
        <time>2007-08-23T08:54:34Z</time>
      </trkpt>
      <trkpt lat="42.855498790740967" lon="10.775377750396729">
        <ele>15.5184326171875</ele>
        <time>2007-08-23T08:54:46Z</time>
      </trkpt>
      <trkpt lat="42.855198383331299" lon="10.775356292724609">
        <ele>13.5958251953125</ele>
        <time>2007-08-23T08:54:56Z</time>
      </trkpt>
      <trkpt lat="42.854897975921631" lon="10.775206089019775">
        <ele>12.15380859375</ele>
        <time>2007-08-23T08:55:07Z</time>
      </trkpt>
      <trkpt lat="42.854597568511963" lon="10.775034427642822">
        <ele>12.15380859375</ele>
        <time>2007-08-23T08:55:18Z</time>
      </trkpt>
      <trkpt lat="42.854275703430176" lon="10.77484130859375">
        <ele>14.5570068359375</ele>
        <time>2007-08-23T08:55:31Z</time>
      </trkpt>
      <trkpt lat="42.854104042053223" lon="10.77484130859375">
        <ele>15.9990234375</ele>
        <time>2007-08-23T08:55:38Z</time>
      </trkpt>
      <trkpt lat="42.853782176971436" lon="10.774884223937988">
        <ele>17.9217529296875</ele>
        <time>2007-08-23T08:55:50Z</time>
      </trkpt>
      <trkpt lat="42.853567600250244" lon="10.774905681610107">
        <ele>16.96044921875</ele>
        <time>2007-08-23T08:55:59Z</time>
      </trkpt>
      <trkpt lat="42.853374481201172" lon="10.774819850921631">
        <ele>19.36376953125</ele>
        <time>2007-08-23T08:56:07Z</time>
      </trkpt>
      <trkpt lat="42.85315990447998" lon="10.77458381652832">
        <ele>19.36376953125</ele>
        <time>2007-08-23T08:56:19Z</time>
      </trkpt>
      <trkpt lat="42.853031158447266" lon="10.774412155151367">
        <ele>23.208984375</ele>
        <time>2007-08-23T08:56:30Z</time>
      </trkpt>
      <trkpt lat="42.852988243103027" lon="10.774369239807129">
        <ele>27.534912109375</ele>
        <time>2007-08-23T08:56:50Z</time>
      </trkpt>
      <trkpt lat="42.852945327758789" lon="10.774326324462891">
        <ele>26.5736083984375</ele>
        <time>2007-08-23T08:56:55Z</time>
      </trkpt>
      <trkpt lat="42.852816581726074" lon="10.774240493774414">
        <ele>27.0543212890625</ele>
        <time>2007-08-23T08:57:08Z</time>
      </trkpt>
      <trkpt lat="42.852709293365479" lon="10.774154663085938">
        <ele>27.0543212890625</ele>
        <time>2007-08-23T08:57:26Z</time>
      </trkpt>
      <trkpt lat="42.852602005004883" lon="10.774025917053223">
        <ele>27.0543212890625</ele>
        <time>2007-08-23T08:57:48Z</time>
      </trkpt>
      <trkpt lat="42.852451801300049" lon="10.77383279800415">
        <ele>27.0543212890625</ele>
        <time>2007-08-23T08:58:11Z</time>
      </trkpt>
      <trkpt lat="42.852365970611572" lon="10.773661136627197">
        <ele>28.9769287109375</ele>
        <time>2007-08-23T08:58:29Z</time>
      </trkpt>
      <trkpt lat="42.852280139923096" lon="10.773532390594482">
        <ele>29.9381103515625</ele>
        <time>2007-08-23T08:58:49Z</time>
      </trkpt>
      <trkpt lat="42.8521728515625" lon="10.773425102233887">
        <ele>30.8995361328125</ele>
        <time>2007-08-23T08:59:04Z</time>
      </trkpt>
      <trkpt lat="42.852065563201904" lon="10.773296356201172">
        <ele>36.66748046875</ele>
        <time>2007-08-23T08:59:21Z</time>
      </trkpt>
      <trkpt lat="42.852022647857666" lon="10.773274898529053">
        <ele>39.0706787109375</ele>
        <time>2007-08-23T08:59:31Z</time>
      </trkpt>
      <trkpt lat="42.851958274841309" lon="10.773253440856934">
        <ele>40.0321044921875</ele>
        <time>2007-08-23T08:59:40Z</time>
      </trkpt>
      <trkpt lat="42.851893901824951" lon="10.773210525512695">
        <ele>41.9547119140625</ele>
        <time>2007-08-23T08:59:47Z</time>
      </trkpt>
      <trkpt lat="42.851850986480713" lon="10.773210525512695">
        <ele>43.3966064453125</ele>
        <time>2007-08-23T08:59:51Z</time>
      </trkpt>
      <trkpt lat="42.851743698120117" lon="10.773274898529053">
        <ele>45.3192138671875</ele>
        <time>2007-08-23T09:00:02Z</time>
      </trkpt>
      <trkpt lat="42.851700782775879" lon="10.773296356201172">
        <ele>46.76123046875</ele>
        <time>2007-08-23T09:00:09Z</time>
      </trkpt>
      <trkpt lat="42.851529121398926" lon="10.773510932922363">
        <ele>48.6839599609375</ele>
        <time>2007-08-23T09:00:18Z</time>
      </trkpt>
      <trkpt lat="42.851336002349854" lon="10.773704051971436">
        <ele>48.6839599609375</ele>
        <time>2007-08-23T09:00:29Z</time>
      </trkpt>
      <trkpt lat="42.851293087005615" lon="10.773768424987793">
        <ele>48.203369140625</ele>
        <time>2007-08-23T09:00:35Z</time>
      </trkpt>
      <trkpt lat="42.8511643409729" lon="10.77385425567627">
        <ele>48.203369140625</ele>
        <time>2007-08-23T09:00:41Z</time>
      </trkpt>
      <trkpt lat="42.851014137268066" lon="10.774004459381104">
        <ele>47.7225341796875</ele>
        <time>2007-08-23T09:00:48Z</time>
      </trkpt>
      <trkpt lat="42.85092830657959" lon="10.77409029006958">
        <ele>46.2806396484375</ele>
        <time>2007-08-23T09:00:53Z</time>
      </trkpt>
      <trkpt lat="42.850799560546875" lon="10.774197578430176">
        <ele>45.7999267578125</ele>
        <time>2007-08-23T09:01:00Z</time>
      </trkpt>
      <trkpt lat="42.850627899169922" lon="10.774369239807129">
        <ele>46.2806396484375</ele>
        <time>2007-08-23T09:01:10Z</time>
      </trkpt>
      <trkpt lat="42.850477695465088" lon="10.774455070495605">
        <ele>44.838623046875</ele>
        <time>2007-08-23T09:01:16Z</time>
      </trkpt>
      <trkpt lat="42.85041332244873" lon="10.774540901184082">
        <ele>44.838623046875</ele>
        <time>2007-08-23T09:01:23Z</time>
      </trkpt>
      <trkpt lat="42.850391864776611" lon="10.774562358856201">
        <ele>44.838623046875</ele>
        <time>2007-08-23T09:01:26Z</time>
      </trkpt>
      <trkpt lat="42.850370407104492" lon="10.774626731872559">
        <ele>43.8773193359375</ele>
        <time>2007-08-23T09:01:29Z</time>
      </trkpt>
      <trkpt lat="42.850348949432373" lon="10.774776935577393">
        <ele>43.8773193359375</ele>
        <time>2007-08-23T09:01:37Z</time>
      </trkpt>
      <trkpt lat="42.850241661071777" lon="10.774905681610107">
        <ele>44.3580322265625</ele>
        <time>2007-08-23T09:01:45Z</time>
      </trkpt>
      <trkpt lat="42.850198745727539" lon="10.775034427642822">
        <ele>41.9547119140625</ele>
        <time>2007-08-23T09:01:51Z</time>
      </trkpt>
      <trkpt lat="42.850091457366943" lon="10.775227546691895">
        <ele>40.993408203125</ele>
        <time>2007-08-23T09:02:02Z</time>
      </trkpt>
      <trkpt lat="42.850069999694824" lon="10.77533483505249">
        <ele>38.109375</ele>
        <time>2007-08-23T09:02:08Z</time>
      </trkpt>
      <trkpt lat="42.850027084350586" lon="10.775420665740967">
        <ele>36.186767578125</ele>
        <time>2007-08-23T09:02:14Z</time>
      </trkpt>
      <trkpt lat="42.850005626678467" lon="10.775420665740967">
        <ele>34.26416015625</ele>
        <time>2007-08-23T09:02:29Z</time>
      </trkpt>
      <trkpt lat="42.850005626678467" lon="10.775399208068848">
        <ele>31.8607177734375</ele>
        <time>2007-08-23T09:03:10Z</time>
      </trkpt>
      <trkpt lat="42.849984169006348" lon="10.775463581085205">
        <ele>31.380126953125</ele>
        <time>2007-08-23T09:03:24Z</time>
      </trkpt>
      <trkpt lat="42.849984169006348" lon="10.775506496429443">
        <ele>32.822265625</ele>
        <time>2007-08-23T09:03:37Z</time>
      </trkpt>
      <trkpt lat="42.850005626678467" lon="10.775635242462158">
        <ele>31.380126953125</ele>
        <time>2007-08-23T09:03:46Z</time>
      </trkpt>
      <trkpt lat="42.850069999694824" lon="10.77584981918335">
        <ele>30.8995361328125</ele>
        <time>2007-08-23T09:04:00Z</time>
      </trkpt>
      <trkpt lat="42.85017728805542" lon="10.776107311248779">
        <ele>30.8995361328125</ele>
        <time>2007-08-23T09:04:13Z</time>
      </trkpt>
      <trkpt lat="42.850220203399658" lon="10.776257514953613">
        <ele>30.4188232421875</ele>
        <time>2007-08-23T09:04:23Z</time>
      </trkpt>
      <trkpt lat="42.850284576416016" lon="10.776364803314209">
        <ele>31.380126953125</ele>
        <time>2007-08-23T09:04:35Z</time>
      </trkpt>
      <trkpt lat="42.850370407104492" lon="10.776493549346924">
        <ele>37.1480712890625</ele>
        <time>2007-08-23T09:04:49Z</time>
      </trkpt>
      <trkpt lat="42.85043478012085" lon="10.776643753051758">
        <ele>38.590087890625</ele>
        <time>2007-08-23T09:05:03Z</time>
      </trkpt>
      <trkpt lat="42.850477695465088" lon="10.776793956756592">
        <ele>40.0321044921875</ele>
        <time>2007-08-23T09:05:15Z</time>
      </trkpt>
      <trkpt lat="42.85043478012085" lon="10.776922702789307">
        <ele>42.4354248046875</ele>
        <time>2007-08-23T09:05:25Z</time>
      </trkpt>
      <trkpt lat="42.850391864776611" lon="10.776965618133545">
        <ele>43.3966064453125</ele>
        <time>2007-08-23T09:05:31Z</time>
      </trkpt>
      <trkpt lat="42.850306034088135" lon="10.77709436416626">
        <ele>44.838623046875</ele>
        <time>2007-08-23T09:05:44Z</time>
      </trkpt>
      <trkpt lat="42.850241661071777" lon="10.777244567871094">
        <ele>45.7999267578125</ele>
        <time>2007-08-23T09:05:57Z</time>
      </trkpt>
      <trkpt lat="42.850220203399658" lon="10.777373313903809">
        <ele>48.203369140625</ele>
        <time>2007-08-23T09:06:08Z</time>
      </trkpt>
      <trkpt lat="42.850220203399658" lon="10.777437686920166">
        <ele>49.645263671875</ele>
        <time>2007-08-23T09:06:17Z</time>
      </trkpt>
      <trkpt lat="42.850241661071777" lon="10.777544975280762">
        <ele>51.087158203125</ele>
        <time>2007-08-23T09:06:47Z</time>
      </trkpt>
      <trkpt lat="42.850263118743896" lon="10.777716636657715">
        <ele>50.1259765625</ele>
        <time>2007-08-23T09:07:01Z</time>
      </trkpt>
      <trkpt lat="42.850306034088135" lon="10.77784538269043">
        <ele>48.6839599609375</ele>
        <time>2007-08-23T09:07:11Z</time>
      </trkpt>
      <trkpt lat="42.850327491760254" lon="10.778017044067383">
        <ele>51.56787109375</ele>
        <time>2007-08-23T09:07:23Z</time>
      </trkpt>
      <trkpt lat="42.850348949432373" lon="10.778167247772217">
        <ele>53.490478515625</ele>
        <time>2007-08-23T09:07:36Z</time>
      </trkpt>
      <trkpt lat="42.850327491760254" lon="10.77833890914917">
        <ele>56.8551025390625</ele>
        <time>2007-08-23T09:07:51Z</time>
      </trkpt>
      <trkpt lat="42.850284576416016" lon="10.778424739837646">
        <ele>57.3358154296875</ele>
        <time>2007-08-23T09:07:59Z</time>
      </trkpt>
      <trkpt lat="42.850220203399658" lon="10.778553485870361">
        <ele>59.2584228515625</ele>
        <time>2007-08-23T09:08:10Z</time>
      </trkpt>
      <trkpt lat="42.85017728805542" lon="10.778660774230957">
        <ele>58.7777099609375</ele>
        <time>2007-08-23T09:08:20Z</time>
      </trkpt>
      <trkpt lat="42.85017728805542" lon="10.778703689575195">
        <ele>58.7777099609375</ele>
        <time>2007-08-23T09:08:24Z</time>
      </trkpt>
      <trkpt lat="42.850155830383301" lon="10.77883243560791">
        <ele>60.7003173828125</ele>
        <time>2007-08-23T09:08:36Z</time>
      </trkpt>
      <trkpt lat="42.850134372711182" lon="10.778939723968506">
        <ele>61.1810302734375</ele>
        <time>2007-08-23T09:08:46Z</time>
      </trkpt>
      <trkpt lat="42.850134372711182" lon="10.779025554656982">
        <ele>63.5843505859375</ele>
        <time>2007-08-23T09:08:56Z</time>
      </trkpt>
      <trkpt lat="42.850112915039063" lon="10.779154300689697">
        <ele>65.9876708984375</ele>
        <time>2007-08-23T09:09:07Z</time>
      </trkpt>
      <trkpt lat="42.850112915039063" lon="10.779261589050293">
        <ele>66.46826171875</ele>
        <time>2007-08-23T09:09:18Z</time>
      </trkpt>
      <trkpt lat="42.850112915039063" lon="10.77932596206665">
        <ele>66.948974609375</ele>
        <time>2007-08-23T09:09:29Z</time>
      </trkpt>
      <trkpt lat="42.850091457366943" lon="10.779390335083008">
        <ele>65.9876708984375</ele>
        <time>2007-08-23T09:09:49Z</time>
      </trkpt>
      <trkpt lat="42.850091457366943" lon="10.779454708099365">
        <ele>65.9876708984375</ele>
        <time>2007-08-23T09:09:57Z</time>
      </trkpt>
      <trkpt lat="42.850069999694824" lon="10.779561996459961">
        <ele>68.390869140625</ele>
        <time>2007-08-23T09:10:06Z</time>
      </trkpt>
      <trkpt lat="42.850069999694824" lon="10.779690742492676">
        <ele>70.794189453125</ele>
        <time>2007-08-23T09:10:19Z</time>
      </trkpt>
      <trkpt lat="42.850048542022705" lon="10.77984094619751">
        <ele>70.3134765625</ele>
        <time>2007-08-23T09:10:33Z</time>
      </trkpt>
      <trkpt lat="42.850027084350586" lon="10.779969692230225">
        <ele>72.2362060546875</ele>
        <time>2007-08-23T09:10:47Z</time>
      </trkpt>
      <trkpt lat="42.850027084350586" lon="10.780034065246582">
        <ele>76.0814208984375</ele>
        <time>2007-08-23T09:11:15Z</time>
      </trkpt>
      <trkpt lat="42.850027084350586" lon="10.780141353607178">
        <ele>78.4847412109375</ele>
        <time>2007-08-23T09:11:26Z</time>
      </trkpt>
      <trkpt lat="42.850027084350586" lon="10.780248641967773">
        <ele>79.9266357421875</ele>
        <time>2007-08-23T09:11:36Z</time>
      </trkpt>
      <trkpt lat="42.849984169006348" lon="10.780377388000488">
        <ele>79.446044921875</ele>
        <time>2007-08-23T09:11:48Z</time>
      </trkpt>
      <trkpt lat="42.84991979598999" lon="10.780484676361084">
        <ele>81.849365234375</ele>
        <time>2007-08-23T09:11:59Z</time>
      </trkpt>
      <trkpt lat="42.849833965301514" lon="10.780549049377441">
        <ele>82.330078125</ele>
        <time>2007-08-23T09:12:10Z</time>
      </trkpt>
      <trkpt lat="42.849791049957275" lon="10.780570507049561">
        <ele>81.849365234375</ele>
        <time>2007-08-23T09:12:18Z</time>
      </trkpt>
      <trkpt lat="42.849705219268799" lon="10.780613422393799">
        <ele>83.2913818359375</ele>
        <time>2007-08-23T09:12:30Z</time>
      </trkpt>
      <trkpt lat="42.849640846252441" lon="10.780634880065918">
        <ele>82.810791015625</ele>
        <time>2007-08-23T09:12:38Z</time>
      </trkpt>
      <trkpt lat="42.849555015563965" lon="10.780677795410156">
        <ele>82.810791015625</ele>
        <time>2007-08-23T09:12:52Z</time>
      </trkpt>
      <trkpt lat="42.849533557891846" lon="10.780677795410156">
        <ele>83.2913818359375</ele>
        <time>2007-08-23T09:13:03Z</time>
      </trkpt>
      <trkpt lat="42.849447727203369" lon="10.780699253082275">
        <ele>85.694580078125</ele>
        <time>2007-08-23T09:13:14Z</time>
      </trkpt>
      <trkpt lat="42.849361896514893" lon="10.780720710754395">
        <ele>85.694580078125</ele>
        <time>2007-08-23T09:13:25Z</time>
      </trkpt>
      <trkpt lat="42.849276065826416" lon="10.780763626098633">
        <ele>85.2139892578125</ele>
        <time>2007-08-23T09:13:37Z</time>
      </trkpt>
      <trkpt lat="42.849276065826416" lon="10.780742168426514">
        <ele>85.2139892578125</ele>
        <time>2007-08-23T09:13:51Z</time>
      </trkpt>
      <trkpt lat="42.849276065826416" lon="10.780742168426514">
        <ele>86.656005859375</ele>
        <time>2007-08-23T09:17:07Z</time>
      </trkpt>
      <trkpt lat="42.849297523498535" lon="10.780742168426514">
        <ele>82.330078125</ele>
        <time>2007-08-23T09:21:54Z</time>
      </trkpt>
      <trkpt lat="42.849147319793701" lon="10.780742168426514">
        <ele>82.810791015625</ele>
        <time>2007-08-23T09:22:03Z</time>
      </trkpt>
      <trkpt lat="42.849018573760986" lon="10.780742168426514">
        <ele>82.810791015625</ele>
        <time>2007-08-23T09:22:11Z</time>
      </trkpt>
      <trkpt lat="42.848825454711914" lon="10.780720710754395">
        <ele>81.849365234375</ele>
        <time>2007-08-23T09:22:20Z</time>
      </trkpt>
      <trkpt lat="42.848610877990723" lon="10.780677795410156">
        <ele>80.407470703125</ele>
        <time>2007-08-23T09:22:29Z</time>
      </trkpt>
      <trkpt lat="42.848331928253174" lon="10.780549049377441">
        <ele>84.252685546875</ele>
        <time>2007-08-23T09:22:41Z</time>
      </trkpt>
      <trkpt lat="42.847988605499268" lon="10.780420303344727">
        <ele>82.330078125</ele>
        <time>2007-08-23T09:22:53Z</time>
      </trkpt>
      <trkpt lat="42.847859859466553" lon="10.780398845672607">
        <ele>81.3687744140625</ele>
        <time>2007-08-23T09:22:58Z</time>
      </trkpt>
      <trkpt lat="42.847945690155029" lon="10.780634880065918">
        <ele>80.407470703125</ele>
        <time>2007-08-23T09:23:06Z</time>
      </trkpt>
      <trkpt lat="42.848117351531982" lon="10.780999660491943">
        <ele>77.0428466796875</ele>
        <time>2007-08-23T09:23:16Z</time>
      </trkpt>
      <trkpt lat="42.848310470581055" lon="10.781364440917969">
        <ele>71.27490234375</ele>
        <time>2007-08-23T09:23:28Z</time>
      </trkpt>
      <trkpt lat="42.848546504974365" lon="10.781793594360352">
        <ele>65.0263671875</ele>
        <time>2007-08-23T09:23:41Z</time>
      </trkpt>
      <trkpt lat="42.848696708679199" lon="10.782179832458496">
        <ele>61.1810302734375</ele>
        <time>2007-08-23T09:23:51Z</time>
      </trkpt>
      <trkpt lat="42.848803997039795" lon="10.782372951507568">
        <ele>58.297119140625</ele>
        <time>2007-08-23T09:23:57Z</time>
      </trkpt>
      <trkpt lat="42.84893274307251" lon="10.782630443572998">
        <ele>55.893798828125</ele>
        <time>2007-08-23T09:24:04Z</time>
      </trkpt>
      <trkpt lat="42.849125862121582" lon="10.782909393310547">
        <ele>53.490478515625</ele>
        <time>2007-08-23T09:24:14Z</time>
      </trkpt>
      <trkpt lat="42.849125862121582" lon="10.782973766326904">
        <ele>52.5291748046875</ele>
        <time>2007-08-23T09:24:23Z</time>
      </trkpt>
      <trkpt lat="42.849082946777344" lon="10.782995223999023">
        <ele>52.5291748046875</ele>
        <time>2007-08-23T09:24:30Z</time>
      </trkpt>
      <trkpt lat="42.848954200744629" lon="10.783059597015381">
        <ele>52.5291748046875</ele>
        <time>2007-08-23T09:24:36Z</time>
      </trkpt>
      <trkpt lat="42.848718166351318" lon="10.783188343048096">
        <ele>44.3580322265625</ele>
        <time>2007-08-23T09:24:46Z</time>
      </trkpt>
      <trkpt lat="42.848589420318604" lon="10.783360004425049">
        <ele>42.4354248046875</ele>
        <time>2007-08-23T09:24:53Z</time>
      </trkpt>
      <trkpt lat="42.848353385925293" lon="10.783596038818359">
        <ele>40.5128173828125</ele>
        <time>2007-08-23T09:25:03Z</time>
      </trkpt>
      <trkpt lat="42.848203182220459" lon="10.783939361572266">
        <ele>38.590087890625</ele>
        <time>2007-08-23T09:25:13Z</time>
      </trkpt>
      <trkpt lat="42.848052978515625" lon="10.784261226654053">
        <ele>37.1480712890625</ele>
        <time>2007-08-23T09:25:20Z</time>
      </trkpt>
      <trkpt lat="42.848010063171387" lon="10.784282684326172">
        <ele>36.66748046875</ele>
        <time>2007-08-23T09:25:21Z</time>
      </trkpt>
      <trkpt lat="42.847709655761719" lon="10.784304141998291">
        <ele>31.380126953125</ele>
        <time>2007-08-23T09:25:28Z</time>
      </trkpt>
      <trkpt lat="42.847259044647217" lon="10.784304141998291">
        <ele>27.534912109375</ele>
        <time>2007-08-23T09:25:39Z</time>
      </trkpt>
      <trkpt lat="42.847087383270264" lon="10.784304141998291">
        <ele>25.1317138671875</ele>
        <time>2007-08-23T09:25:43Z</time>
      </trkpt>
      <trkpt lat="42.846851348876953" lon="10.784282684326172">
        <ele>21.286376953125</ele>
        <time>2007-08-23T09:25:48Z</time>
      </trkpt>
      <trkpt lat="42.846508026123047" lon="10.784196853637695">
        <ele>17.9217529296875</ele>
        <time>2007-08-23T09:25:56Z</time>
      </trkpt>
      <trkpt lat="42.846121788024902" lon="10.784175395965576">
        <ele>14.5570068359375</ele>
        <time>2007-08-23T09:26:05Z</time>
      </trkpt>
      <trkpt lat="42.84592866897583" lon="10.784111022949219">
        <ele>13.1151123046875</ele>
        <time>2007-08-23T09:26:11Z</time>
      </trkpt>
      <trkpt lat="42.845563888549805" lon="10.783789157867432">
        <ele>9.2698974609375</ele>
        <time>2007-08-23T09:35:31Z</time>
      </trkpt>
      <trkpt lat="42.845585346221924" lon="10.784046649932861">
        <ele>8.7891845703125</ele>
        <time>2007-08-23T09:35:38Z</time>
      </trkpt>
      <trkpt lat="42.845606803894043" lon="10.784647464752197">
        <ele>11.1925048828125</ele>
        <time>2007-08-23T09:35:52Z</time>
      </trkpt>
      <trkpt lat="42.845714092254639" lon="10.785226821899414">
        <ele>11.1925048828125</ele>
        <time>2007-08-23T09:36:04Z</time>
      </trkpt>
      <trkpt lat="42.845821380615234" lon="10.78582763671875">
        <ele>10.231201171875</ele>
        <time>2007-08-23T09:36:16Z</time>
      </trkpt>
      <trkpt lat="42.845885753631592" lon="10.786192417144775">
        <ele>9.7506103515625</ele>
        <time>2007-08-23T09:36:25Z</time>
      </trkpt>
      <trkpt lat="42.845950126647949" lon="10.786535739898682">
        <ele>8.7891845703125</ele>
        <time>2007-08-23T09:36:33Z</time>
      </trkpt>
      <trkpt lat="42.846057415008545" lon="10.787029266357422">
        <ele>8.30859375</ele>
        <time>2007-08-23T09:36:44Z</time>
      </trkpt>
      <trkpt lat="42.84618616104126" lon="10.787544250488281">
        <ele>8.7891845703125</ele>
        <time>2007-08-23T09:36:55Z</time>
      </trkpt>
      <trkpt lat="42.846271991729736" lon="10.787994861602783">
        <ele>7.827880859375</ele>
        <time>2007-08-23T09:37:05Z</time>
      </trkpt>
      <trkpt lat="42.846336364746094" lon="10.788466930389404">
        <ele>7.827880859375</ele>
        <time>2007-08-23T09:37:17Z</time>
      </trkpt>
      <trkpt lat="42.846400737762451" lon="10.788960456848145">
        <ele>7.34716796875</ele>
        <time>2007-08-23T09:37:29Z</time>
      </trkpt>
      <trkpt lat="42.846508026123047" lon="10.789496898651123">
        <ele>7.34716796875</ele>
        <time>2007-08-23T09:37:40Z</time>
      </trkpt>
      <trkpt lat="42.846701145172119" lon="10.789968967437744">
        <ele>7.34716796875</ele>
        <time>2007-08-23T09:37:50Z</time>
      </trkpt>
      <trkpt lat="42.84693717956543" lon="10.790441036224365">
        <ele>7.34716796875</ele>
        <time>2007-08-23T09:38:03Z</time>
      </trkpt>
      <trkpt lat="42.847044467926025" lon="10.790698528289795">
        <ele>7.827880859375</ele>
        <time>2007-08-23T09:38:11Z</time>
      </trkpt>
      <trkpt lat="42.847237586975098" lon="10.791127681732178">
        <ele>8.7891845703125</ele>
        <time>2007-08-23T09:38:23Z</time>
      </trkpt>
      <trkpt lat="42.847344875335693" lon="10.791406631469727">
        <ele>9.2698974609375</ele>
        <time>2007-08-23T09:38:31Z</time>
      </trkpt>
      <trkpt lat="42.847559452056885" lon="10.792050361633301">
        <ele>9.2698974609375</ele>
        <time>2007-08-23T09:38:46Z</time>
      </trkpt>
      <trkpt lat="42.84766674041748" lon="10.792672634124756">
        <ele>10.231201171875</ele>
        <time>2007-08-23T09:38:59Z</time>
      </trkpt>
      <trkpt lat="42.847709655761719" lon="10.793466567993164">
        <ele>11.6732177734375</ele>
        <time>2007-08-23T09:39:14Z</time>
      </trkpt>
      <trkpt lat="42.847731113433838" lon="10.794217586517334">
        <ele>13.1151123046875</ele>
        <time>2007-08-23T09:39:29Z</time>
      </trkpt>
      <trkpt lat="42.847731113433838" lon="10.794711112976074">
        <ele>13.1151123046875</ele>
        <time>2007-08-23T09:39:40Z</time>
      </trkpt>
      <trkpt lat="42.847709655761719" lon="10.795183181762695">
        <ele>14.076416015625</ele>
        <time>2007-08-23T09:39:50Z</time>
      </trkpt>
      <trkpt lat="42.847623825073242" lon="10.795698165893555">
        <ele>15.5184326171875</ele>
        <time>2007-08-23T09:40:01Z</time>
      </trkpt>
      <trkpt lat="42.847709655761719" lon="10.796127319335938">
        <ele>15.5184326171875</ele>
        <time>2007-08-23T09:40:10Z</time>
      </trkpt>
      <trkpt lat="42.847859859466553" lon="10.79681396484375">
        <ele>15.0377197265625</ele>
        <time>2007-08-23T09:40:24Z</time>
      </trkpt>
      <trkpt lat="42.847945690155029" lon="10.797286033630371">
        <ele>15.0377197265625</ele>
        <time>2007-08-23T09:40:34Z</time>
      </trkpt>
      <trkpt lat="42.848117351531982" lon="10.79780101776123">
        <ele>15.0377197265625</ele>
        <time>2007-08-23T09:40:47Z</time>
      </trkpt>
      <trkpt lat="42.848331928253174" lon="10.798122882843018">
        <ele>15.0377197265625</ele>
        <time>2007-08-23T09:40:58Z</time>
      </trkpt>
      <trkpt lat="42.848632335662842" lon="10.798423290252686">
        <ele>15.0377197265625</ele>
        <time>2007-08-23T09:41:09Z</time>
      </trkpt>
      <trkpt lat="42.848954200744629" lon="10.798745155334473">
        <ele>14.5570068359375</ele>
        <time>2007-08-23T09:41:21Z</time>
      </trkpt>
      <trkpt lat="42.849404811859131" lon="10.799152851104736">
        <ele>13.5958251953125</ele>
        <time>2007-08-23T09:41:36Z</time>
      </trkpt>
      <trkpt lat="42.849812507629395" lon="10.799539089202881">
        <ele>13.5958251953125</ele>
        <time>2007-08-23T09:41:50Z</time>
      </trkpt>
      <trkpt lat="42.85017728805542" lon="10.799860954284668">
        <ele>14.5570068359375</ele>
        <time>2007-08-23T09:42:02Z</time>
      </trkpt>
      <trkpt lat="42.85043478012085" lon="10.800118446350098">
        <ele>15.0377197265625</ele>
        <time>2007-08-23T09:42:11Z</time>
      </trkpt>
      <trkpt lat="42.850863933563232" lon="10.800526142120361">
        <ele>14.076416015625</ele>
        <time>2007-08-23T09:42:25Z</time>
      </trkpt>
      <trkpt lat="42.851271629333496" lon="10.800890922546387">
        <ele>13.1151123046875</ele>
        <time>2007-08-23T09:42:38Z</time>
      </trkpt>
      <trkpt lat="42.851378917694092" lon="10.801019668579102">
        <ele>13.1151123046875</ele>
        <time>2007-08-23T09:42:43Z</time>
      </trkpt>
      <trkpt lat="42.851464748382568" lon="10.800933837890625">
        <ele>13.5958251953125</ele>
        <time>2007-08-23T09:42:50Z</time>
      </trkpt>
      <trkpt lat="42.851636409759521" lon="10.800697803497314">
        <ele>14.5570068359375</ele>
        <time>2007-08-23T09:42:59Z</time>
      </trkpt>
      <trkpt lat="42.851850986480713" lon="10.800354480743408">
        <ele>15.0377197265625</ele>
        <time>2007-08-23T09:43:10Z</time>
      </trkpt>
      <trkpt lat="42.852129936218262" lon="10.799903869628906">
        <ele>16.479736328125</ele>
        <time>2007-08-23T09:43:25Z</time>
      </trkpt>
      <trkpt lat="42.852301597595215" lon="10.799646377563477">
        <ele>19.36376953125</ele>
        <time>2007-08-23T09:43:35Z</time>
      </trkpt>
      <trkpt lat="42.852516174316406" lon="10.799281597137451">
        <ele>19.8443603515625</ele>
        <time>2007-08-23T09:43:49Z</time>
      </trkpt>
      <trkpt lat="42.852730751037598" lon="10.798938274383545">
        <ele>20.324951171875</ele>
        <time>2007-08-23T09:44:02Z</time>
      </trkpt>
      <trkpt lat="42.852838039398193" lon="10.798659324645996">
        <ele>21.286376953125</ele>
        <time>2007-08-23T09:44:12Z</time>
      </trkpt>
      <trkpt lat="42.852880954742432" lon="10.798487663269043">
        <ele>22.24755859375</ele>
        <time>2007-08-23T09:44:20Z</time>
      </trkpt>
      <trkpt lat="42.852902412414551" lon="10.798380374908447">
        <ele>23.6895751953125</ele>
        <time>2007-08-23T09:44:24Z</time>
      </trkpt>
      <trkpt lat="42.853009700775146" lon="10.798337459564209">
        <ele>25.6123046875</ele>
        <time>2007-08-23T09:44:29Z</time>
      </trkpt>
      <trkpt lat="42.853267192840576" lon="10.798294544219971">
        <ele>27.0543212890625</ele>
        <time>2007-08-23T09:44:40Z</time>
      </trkpt>
      <trkpt lat="42.853395938873291" lon="10.798165798187256">
        <ele>28.0155029296875</ele>
        <time>2007-08-23T09:44:48Z</time>
      </trkpt>
      <trkpt lat="42.853589057922363" lon="10.797972679138184">
        <ele>27.0543212890625</ele>
        <time>2007-08-23T09:44:59Z</time>
      </trkpt>
      <trkpt lat="42.853782176971436" lon="10.79780101776123">
        <ele>26.0928955078125</ele>
        <time>2007-08-23T09:45:10Z</time>
      </trkpt>
      <trkpt lat="42.854039669036865" lon="10.797522068023682">
        <ele>27.534912109375</ele>
        <time>2007-08-23T09:45:24Z</time>
      </trkpt>
      <trkpt lat="42.854189872741699" lon="10.797371864318848">
        <ele>28.9769287109375</ele>
        <time>2007-08-23T09:45:33Z</time>
      </trkpt>
      <trkpt lat="42.854361534118652" lon="10.797200202941895">
        <ele>30.8995361328125</ele>
        <time>2007-08-23T09:45:41Z</time>
      </trkpt>
      <trkpt lat="42.854447364807129" lon="10.79707145690918">
        <ele>32.341552734375</ele>
        <time>2007-08-23T09:45:48Z</time>
      </trkpt>
      <trkpt lat="42.854619026184082" lon="10.796792507171631">
        <ele>32.822265625</ele>
        <time>2007-08-23T09:45:59Z</time>
      </trkpt>
      <trkpt lat="42.854790687561035" lon="10.796535015106201">
        <ele>34.26416015625</ele>
        <time>2007-08-23T09:46:11Z</time>
      </trkpt>
      <trkpt lat="42.854983806610107" lon="10.796213150024414">
        <ele>35.2254638671875</ele>
        <time>2007-08-23T09:46:23Z</time>
      </trkpt>
      <trkpt lat="42.855219841003418" lon="10.796020030975342">
        <ele>36.66748046875</ele>
        <time>2007-08-23T09:46:34Z</time>
      </trkpt>
      <trkpt lat="42.855498790740967" lon="10.795955657958984">
        <ele>35.7060546875</ele>
        <time>2007-08-23T09:46:43Z</time>
      </trkpt>
      <trkpt lat="42.85567045211792" lon="10.795891284942627">
        <ele>36.186767578125</ele>
        <time>2007-08-23T09:46:49Z</time>
      </trkpt>
      <trkpt lat="42.855992317199707" lon="10.79580545425415">
        <ele>36.186767578125</ele>
        <time>2007-08-23T09:46:58Z</time>
      </trkpt>
      <trkpt lat="42.856528759002686" lon="10.795612335205078">
        <ele>35.7060546875</ele>
        <time>2007-08-23T09:47:13Z</time>
      </trkpt>
      <trkpt lat="42.856786251068115" lon="10.795547962188721">
        <ele>34.26416015625</ele>
        <time>2007-08-23T09:47:23Z</time>
      </trkpt>
      <trkpt lat="42.856893539428711" lon="10.795505046844482">
        <ele>33.783447265625</ele>
        <time>2007-08-23T09:47:27Z</time>
      </trkpt>
      <trkpt lat="42.856893539428711" lon="10.795333385467529">
        <ele>33.783447265625</ele>
        <time>2007-08-23T09:47:33Z</time>
      </trkpt>
      <trkpt lat="42.856829166412354" lon="10.79505443572998">
        <ele>34.26416015625</ele>
        <time>2007-08-23T09:47:43Z</time>
      </trkpt>
      <trkpt lat="42.856764793395996" lon="10.794689655303955">
        <ele>35.2254638671875</ele>
        <time>2007-08-23T09:47:55Z</time>
      </trkpt>
      <trkpt lat="42.856764793395996" lon="10.794603824615479">
        <ele>34.26416015625</ele>
        <time>2007-08-23T09:48:01Z</time>
      </trkpt>
      <trkpt lat="42.856743335723877" lon="10.794582366943359">
        <ele>34.26416015625</ele>
        <time>2007-08-23T09:48:05Z</time>
      </trkpt>
      <trkpt lat="42.856700420379639" lon="10.794410705566406">
        <ele>35.2254638671875</ele>
        <time>2007-08-23T09:48:14Z</time>
      </trkpt>
      <trkpt lat="42.856700420379639" lon="10.7940673828125">
        <ele>36.66748046875</ele>
        <time>2007-08-23T09:48:25Z</time>
      </trkpt>
      <trkpt lat="42.856764793395996" lon="10.793724060058594">
        <ele>37.1480712890625</ele>
        <time>2007-08-23T09:48:35Z</time>
      </trkpt>
      <trkpt lat="42.85691499710083" lon="10.793187618255615">
        <ele>36.66748046875</ele>
        <time>2007-08-23T09:48:51Z</time>
      </trkpt>
      <trkpt lat="42.856893539428711" lon="10.792908668518066">
        <ele>38.109375</ele>
        <time>2007-08-23T09:48:59Z</time>
      </trkpt>
      <trkpt lat="42.856957912445068" lon="10.792608261108398">
        <ele>39.55126953125</ele>
        <time>2007-08-23T09:49:08Z</time>
      </trkpt>
      <trkpt lat="42.857086658477783" lon="10.792136192321777">
        <ele>41.4739990234375</ele>
        <time>2007-08-23T09:49:23Z</time>
      </trkpt>
      <trkpt lat="42.857193946838379" lon="10.791771411895752">
        <ele>42.4354248046875</ele>
        <time>2007-08-23T09:49:35Z</time>
      </trkpt>
      <trkpt lat="42.857387065887451" lon="10.791342258453369">
        <ele>43.3966064453125</ele>
        <time>2007-08-23T09:49:49Z</time>
      </trkpt>
      <trkpt lat="42.857472896575928" lon="10.790998935699463">
        <ele>43.3966064453125</ele>
        <time>2007-08-23T09:50:00Z</time>
      </trkpt>
      <trkpt lat="42.857515811920166" lon="10.790634155273438">
        <ele>44.3580322265625</ele>
        <time>2007-08-23T09:50:11Z</time>
      </trkpt>
      <trkpt lat="42.857558727264404" lon="10.790226459503174">
        <ele>46.76123046875</ele>
        <time>2007-08-23T09:50:24Z</time>
      </trkpt>
      <trkpt lat="42.857623100280762" lon="10.789711475372314">
        <ele>47.2418212890625</ele>
        <time>2007-08-23T09:50:40Z</time>
      </trkpt>
      <trkpt lat="42.857708930969238" lon="10.789282321929932">
        <ele>49.16455078125</ele>
        <time>2007-08-23T09:50:54Z</time>
      </trkpt>
      <trkpt lat="42.857794761657715" lon="10.788938999176025">
        <ele>49.645263671875</ele>
        <time>2007-08-23T09:51:06Z</time>
      </trkpt>
      <trkpt lat="42.857859134674072" lon="10.788509845733643">
        <ele>52.5291748046875</ele>
        <time>2007-08-23T09:51:21Z</time>
      </trkpt>
      <trkpt lat="42.85792350769043" lon="10.788016319274902">
        <ele>54.932373046875</ele>
        <time>2007-08-23T09:51:37Z</time>
      </trkpt>
      <trkpt lat="42.857987880706787" lon="10.787608623504639">
        <ele>57.3358154296875</ele>
        <time>2007-08-23T09:51:51Z</time>
      </trkpt>
      <trkpt lat="42.858052253723145" lon="10.787243843078613">
        <ele>58.297119140625</ele>
        <time>2007-08-23T09:52:05Z</time>
      </trkpt>
      <trkpt lat="42.858095169067383" lon="10.786986351013184">
        <ele>61.1810302734375</ele>
        <time>2007-08-23T09:52:16Z</time>
      </trkpt>
      <trkpt lat="42.85815954208374" lon="10.786643028259277">
        <ele>66.46826171875</ele>
        <time>2007-08-23T09:52:30Z</time>
      </trkpt>
      <trkpt lat="42.858223915100098" lon="10.78632116317749">
        <ele>68.390869140625</ele>
        <time>2007-08-23T09:52:44Z</time>
      </trkpt>
      <trkpt lat="42.858266830444336" lon="10.785977840423584">
        <ele>68.87158203125</ele>
        <time>2007-08-23T09:52:58Z</time>
      </trkpt>
      <trkpt lat="42.858331203460693" lon="10.785677433013916">
        <ele>71.27490234375</ele>
        <time>2007-08-23T09:53:11Z</time>
      </trkpt>
      <trkpt lat="42.858459949493408" lon="10.785355567932129">
        <ele>73.1976318359375</ele>
        <time>2007-08-23T09:53:26Z</time>
      </trkpt>
      <trkpt lat="42.858610153198242" lon="10.78507661819458">
        <ele>76.0814208984375</ele>
        <time>2007-08-23T09:53:39Z</time>
      </trkpt>
      <trkpt lat="42.858738899230957" lon="10.784776210784912">
        <ele>76.0814208984375</ele>
        <time>2007-08-23T09:53:50Z</time>
      </trkpt>
      <trkpt lat="42.858932018280029" lon="10.784368515014648">
        <ele>76.5621337890625</ele>
        <time>2007-08-23T09:54:00Z</time>
      </trkpt>
      <trkpt lat="42.859103679656982" lon="10.783896446228027">
        <ele>75.600830078125</ele>
        <time>2007-08-23T09:54:10Z</time>
      </trkpt>
      <trkpt lat="42.859146595001221" lon="10.783939361572266">
        <ele>76.5621337890625</ele>
        <time>2007-08-23T09:54:14Z</time>
      </trkpt>
      <trkpt lat="42.859253883361816" lon="10.784153938293457">
        <ele>76.5621337890625</ele>
        <time>2007-08-23T09:54:23Z</time>
      </trkpt>
      <trkpt lat="42.859468460083008" lon="10.78432559967041">
        <ele>76.5621337890625</ele>
        <time>2007-08-23T09:54:34Z</time>
      </trkpt>
      <trkpt lat="42.859575748443604" lon="10.784282684326172">
        <ele>76.5621337890625</ele>
        <time>2007-08-23T09:54:40Z</time>
      </trkpt>
      <trkpt lat="42.859747409820557" lon="10.78406810760498">
        <ele>78.4847412109375</ele>
        <time>2007-08-23T09:54:51Z</time>
      </trkpt>
      <trkpt lat="42.859940528869629" lon="10.783896446228027">
        <ele>81.3687744140625</ele>
        <time>2007-08-23T09:55:03Z</time>
      </trkpt>
      <trkpt lat="42.860112190246582" lon="10.783810615539551">
        <ele>84.7333984375</ele>
        <time>2007-08-23T09:55:16Z</time>
      </trkpt>
      <trkpt lat="42.860305309295654" lon="10.783703327178955">
        <ele>85.694580078125</ele>
        <time>2007-08-23T09:55:29Z</time>
      </trkpt>
      <trkpt lat="42.860434055328369" lon="10.783660411834717">
        <ele>89.059326171875</ele>
        <time>2007-08-23T09:55:40Z</time>
      </trkpt>
      <trkpt lat="42.860584259033203" lon="10.783596038818359">
        <ele>90.0206298828125</ele>
        <time>2007-08-23T09:55:54Z</time>
      </trkpt>
      <trkpt lat="42.860713005065918" lon="10.783531665802002">
        <ele>92.4239501953125</ele>
        <time>2007-08-23T09:56:09Z</time>
      </trkpt>
      <trkpt lat="42.860820293426514" lon="10.783424377441406">
        <ele>96.269287109375</ele>
        <time>2007-08-23T09:56:22Z</time>
      </trkpt>
      <trkpt lat="42.860841751098633" lon="10.783402919769287">
        <ele>94.8271484375</ele>
        <time>2007-08-23T09:56:32Z</time>
      </trkpt>
      <trkpt lat="42.860863208770752" lon="10.783402919769287">
        <ele>91.4625244140625</ele>
        <time>2007-08-23T09:57:01Z</time>
      </trkpt>
      <trkpt lat="42.860991954803467" lon="10.783467292785645">
        <ele>120.3021240234375</ele>
        <time>2007-08-23T10:05:40Z</time>
      </trkpt>
      <trkpt lat="42.861034870147705" lon="10.783445835113525">
        <ele>119.8214111328125</ele>
        <time>2007-08-23T10:05:51Z</time>
      </trkpt>
      <trkpt lat="42.861120700836182" lon="10.783424377441406">
        <ele>119.3408203125</ele>
        <time>2007-08-23T10:06:05Z</time>
      </trkpt>
      <trkpt lat="42.861249446868896" lon="10.783360004425049">
        <ele>117.8988037109375</ele>
        <time>2007-08-23T10:06:21Z</time>
      </trkpt>
      <trkpt lat="42.861356735229492" lon="10.783274173736572">
        <ele>117.418212890625</ele>
        <time>2007-08-23T10:06:36Z</time>
      </trkpt>
      <trkpt lat="42.861464023590088" lon="10.783188343048096">
        <ele>117.418212890625</ele>
        <time>2007-08-23T10:06:51Z</time>
      </trkpt>
      <trkpt lat="42.861464023590088" lon="10.783231258392334">
        <ele>117.418212890625</ele>
        <time>2007-08-23T10:06:57Z</time>
      </trkpt>
      <trkpt lat="42.861442565917969" lon="10.783317089080811">
        <ele>117.418212890625</ele>
        <time>2007-08-23T10:07:07Z</time>
      </trkpt>
      <trkpt lat="42.861313819885254" lon="10.783488750457764">
        <ele>117.418212890625</ele>
        <time>2007-08-23T10:07:17Z</time>
      </trkpt>
      <trkpt lat="42.860970497131348" lon="10.783896446228027">
        <ele>115.9761962890625</ele>
        <time>2007-08-23T10:07:32Z</time>
      </trkpt>
      <trkpt lat="42.860713005065918" lon="10.78432559967041">
        <ele>115.49560546875</ele>
        <time>2007-08-23T10:07:45Z</time>
      </trkpt>
      <trkpt lat="42.860713005065918" lon="10.784604549407959">
        <ele>115.9761962890625</ele>
        <time>2007-08-23T10:07:54Z</time>
      </trkpt>
      <trkpt lat="42.860820293426514" lon="10.784947872161865">
        <ele>115.014892578125</ele>
        <time>2007-08-23T10:08:04Z</time>
      </trkpt>
      <trkpt lat="42.860991954803467" lon="10.785226821899414">
        <ele>112.1309814453125</ele>
        <time>2007-08-23T10:08:16Z</time>
      </trkpt>
      <trkpt lat="42.861227989196777" lon="10.785291194915771">
        <ele>110.208251953125</ele>
        <time>2007-08-23T10:08:26Z</time>
      </trkpt>
      <trkpt lat="42.861549854278564" lon="10.785269737243652">
        <ele>108.28564453125</ele>
        <time>2007-08-23T10:08:37Z</time>
      </trkpt>
      <trkpt lat="42.861893177032471" lon="10.785205364227295">
        <ele>107.8050537109375</ele>
        <time>2007-08-23T10:08:50Z</time>
      </trkpt>
      <trkpt lat="42.86217212677002" lon="10.785205364227295">
        <ele>108.28564453125</ele>
        <time>2007-08-23T10:09:02Z</time>
      </trkpt>
      <trkpt lat="42.862343788146973" lon="10.785205364227295">
        <ele>107.8050537109375</ele>
        <time>2007-08-23T10:09:10Z</time>
      </trkpt>
      <trkpt lat="42.862300872802734" lon="10.785291194915771">
        <ele>107.3243408203125</ele>
        <time>2007-08-23T10:09:14Z</time>
      </trkpt>
      <trkpt lat="42.862279415130615" lon="10.78533411026001">
        <ele>109.2469482421875</ele>
        <time>2007-08-23T10:09:17Z</time>
      </trkpt>
      <trkpt lat="42.862343788146973" lon="10.785591602325439">
        <ele>110.208251953125</ele>
        <time>2007-08-23T10:09:26Z</time>
      </trkpt>
      <trkpt lat="42.862322330474854" lon="10.785849094390869">
        <ele>110.208251953125</ele>
        <time>2007-08-23T10:09:34Z</time>
      </trkpt>
      <trkpt lat="42.8621506690979" lon="10.786278247833252">
        <ele>109.7276611328125</ele>
        <time>2007-08-23T10:09:47Z</time>
      </trkpt>
      <trkpt lat="42.862043380737305" lon="10.786685943603516">
        <ele>111.6502685546875</ele>
        <time>2007-08-23T10:09:58Z</time>
      </trkpt>
      <trkpt lat="42.862064838409424" lon="10.786986351013184">
        <ele>112.1309814453125</ele>
        <time>2007-08-23T10:10:07Z</time>
      </trkpt>
      <trkpt lat="42.862000465393066" lon="10.78707218170166">
        <ele>112.1309814453125</ele>
        <time>2007-08-23T10:10:11Z</time>
      </trkpt>
      <trkpt lat="42.861785888671875" lon="10.787158012390137">
        <ele>110.208251953125</ele>
        <time>2007-08-23T10:10:19Z</time>
      </trkpt>
      <trkpt lat="42.861485481262207" lon="10.787351131439209">
        <ele>108.7662353515625</ele>
        <time>2007-08-23T10:10:30Z</time>
      </trkpt>
      <trkpt lat="42.861206531524658" lon="10.787630081176758">
        <ele>107.8050537109375</ele>
        <time>2007-08-23T10:10:42Z</time>
      </trkpt>
      <trkpt lat="42.860991954803467" lon="10.788059234619141">
        <ele>105.8824462890625</ele>
        <time>2007-08-23T10:10:56Z</time>
      </trkpt>
      <trkpt lat="42.860841751098633" lon="10.788531303405762">
        <ele>106.363037109375</ele>
        <time>2007-08-23T10:11:11Z</time>
      </trkpt>
      <trkpt lat="42.86090612411499" lon="10.788853168487549">
        <ele>106.363037109375</ele>
        <time>2007-08-23T10:11:21Z</time>
      </trkpt>
      <trkpt lat="42.861099243164063" lon="10.789110660552979">
        <ele>103.959716796875</ele>
        <time>2007-08-23T10:11:31Z</time>
      </trkpt>
      <trkpt lat="42.861464023590088" lon="10.789346694946289">
        <ele>101.556396484375</ele>
        <time>2007-08-23T10:11:45Z</time>
      </trkpt>
      <trkpt lat="42.861742973327637" lon="10.789453983306885">
        <ele>101.07568359375</ele>
        <time>2007-08-23T10:11:56Z</time>
      </trkpt>
      <trkpt lat="42.86217212677002" lon="10.789625644683838">
        <ele>101.556396484375</ele>
        <time>2007-08-23T10:12:13Z</time>
      </trkpt>
      <trkpt lat="42.862300872802734" lon="10.789840221405029">
        <ele>101.556396484375</ele>
        <time>2007-08-23T10:12:21Z</time>
      </trkpt>
      <trkpt lat="42.862365245819092" lon="10.789990425109863">
        <ele>101.07568359375</ele>
        <time>2007-08-23T10:12:30Z</time>
      </trkpt>
      <trkpt lat="42.862279415130615" lon="10.790848731994629">
        <ele>100.5950927734375</ele>
        <time>2007-08-23T10:12:44Z</time>
      </trkpt>
      <trkpt lat="42.862236499786377" lon="10.791256427764893">
        <ele>101.07568359375</ele>
        <time>2007-08-23T10:12:54Z</time>
      </trkpt>
      <trkpt lat="42.862322330474854" lon="10.791449546813965">
        <ele>101.07568359375</ele>
        <time>2007-08-23T10:13:01Z</time>
      </trkpt>
      <trkpt lat="42.862536907196045" lon="10.791728496551514">
        <ele>102.5177001953125</ele>
        <time>2007-08-23T10:13:12Z</time>
      </trkpt>
      <trkpt lat="42.862751483917236" lon="10.791985988616943">
        <ele>104.9210205078125</ele>
        <time>2007-08-23T10:13:22Z</time>
      </trkpt>
      <trkpt lat="42.86290168762207" lon="10.792243480682373">
        <ele>104.9210205078125</ele>
        <time>2007-08-23T10:13:31Z</time>
      </trkpt>
      <trkpt lat="42.863008975982666" lon="10.792415142059326">
        <ele>104.9210205078125</ele>
        <time>2007-08-23T10:13:38Z</time>
      </trkpt>
      <trkpt lat="42.863094806671143" lon="10.792458057403564">
        <ele>104.9210205078125</ele>
        <time>2007-08-23T10:13:42Z</time>
      </trkpt>
      <trkpt lat="42.863266468048096" lon="10.792222023010254">
        <ele>104.9210205078125</ele>
        <time>2007-08-23T10:13:51Z</time>
      </trkpt>
      <trkpt lat="42.863459587097168" lon="10.791921615600586">
        <ele>103.47900390625</ele>
        <time>2007-08-23T10:14:03Z</time>
      </trkpt>
      <trkpt lat="42.863674163818359" lon="10.791492462158203">
        <ele>102.5177001953125</ele>
        <time>2007-08-23T10:14:18Z</time>
      </trkpt>
      <trkpt lat="42.863888740539551" lon="10.791149139404297">
        <ele>100.5950927734375</ele>
        <time>2007-08-23T10:14:32Z</time>
      </trkpt>
      <trkpt lat="42.863996028900146" lon="10.791149139404297">
        <ele>100.114501953125</ele>
        <time>2007-08-23T10:14:38Z</time>
      </trkpt>
      <trkpt lat="42.86414623260498" lon="10.791234970092773">
        <ele>101.07568359375</ele>
        <time>2007-08-23T10:14:42Z</time>
      </trkpt>
      <trkpt lat="42.86440372467041" lon="10.791385173797607">
        <ele>101.556396484375</ele>
        <time>2007-08-23T10:14:49Z</time>
      </trkpt>
      <trkpt lat="42.864425182342529" lon="10.791406631469727">
        <ele>101.556396484375</ele>
        <time>2007-08-23T10:14:50Z</time>
      </trkpt>
      <trkpt lat="42.864511013031006" lon="10.791385173797607">
        <ele>101.556396484375</ele>
        <time>2007-08-23T10:14:53Z</time>
      </trkpt>
      <trkpt lat="42.864575386047363" lon="10.791084766387939">
        <ele>101.07568359375</ele>
        <time>2007-08-23T10:15:02Z</time>
      </trkpt>
      <trkpt lat="42.864682674407959" lon="10.790741443634033">
        <ele>100.5950927734375</ele>
        <time>2007-08-23T10:15:12Z</time>
      </trkpt>
      <trkpt lat="42.864832878112793" lon="10.790269374847412">
        <ele>100.5950927734375</ele>
        <time>2007-08-23T10:15:27Z</time>
      </trkpt>
      <trkpt lat="42.864832878112793" lon="10.790247917175293">
        <ele>100.5950927734375</ele>
        <time>2007-08-23T10:15:28Z</time>
      </trkpt>
      <trkpt lat="42.864983081817627" lon="10.790205001831055">
        <ele>100.5950927734375</ele>
        <time>2007-08-23T10:15:32Z</time>
      </trkpt>
      <trkpt lat="42.865025997161865" lon="10.790054798126221">
        <ele>100.5950927734375</ele>
        <time>2007-08-23T10:15:38Z</time>
      </trkpt>
      <trkpt lat="42.865133285522461" lon="10.789797306060791">
        <ele>100.5950927734375</ele>
        <time>2007-08-23T10:15:48Z</time>
      </trkpt>
      <trkpt lat="42.865347862243652" lon="10.789539813995361">
        <ele>101.556396484375</ele>
        <time>2007-08-23T10:16:02Z</time>
      </trkpt>
      <trkpt lat="42.865476608276367" lon="10.789346694946289">
        <ele>102.037109375</ele>
        <time>2007-08-23T10:16:11Z</time>
      </trkpt>
      <trkpt lat="42.865433692932129" lon="10.78906774520874">
        <ele>103.47900390625</ele>
        <time>2007-08-23T10:16:19Z</time>
      </trkpt>
      <trkpt lat="42.865433692932129" lon="10.788681507110596">
        <ele>103.47900390625</ele>
        <time>2007-08-23T10:16:31Z</time>
      </trkpt>
      <trkpt lat="42.865326404571533" lon="10.788402557373047">
        <ele>102.998291015625</ele>
        <time>2007-08-23T10:16:41Z</time>
      </trkpt>
      <trkpt lat="42.864596843719482" lon="10.788145065307617">
        <ele>103.47900390625</ele>
        <time>2007-08-23T10:16:55Z</time>
      </trkpt>
      <trkpt lat="42.86440372467041" lon="10.787694454193115">
        <ele>103.959716796875</ele>
        <time>2007-08-23T10:17:14Z</time>
      </trkpt>
      <trkpt lat="42.864639759063721" lon="10.787394046783447">
        <ele>103.959716796875</ele>
        <time>2007-08-23T10:17:27Z</time>
      </trkpt>
      <trkpt lat="42.864532470703125" lon="10.786921977996826">
        <ele>103.959716796875</ele>
        <time>2007-08-23T10:17:44Z</time>
      </trkpt>
      <trkpt lat="42.864489555358887" lon="10.786364078521729">
        <ele>103.959716796875</ele>
        <time>2007-08-23T10:18:02Z</time>
      </trkpt>
      <trkpt lat="42.864639759063721" lon="10.785613059997559">
        <ele>103.959716796875</ele>
        <time>2007-08-23T10:18:26Z</time>
      </trkpt>
      <trkpt lat="42.864725589752197" lon="10.785226821899414">
        <ele>103.959716796875</ele>
        <time>2007-08-23T10:18:41Z</time>
      </trkpt>
      <trkpt lat="42.864940166473389" lon="10.78458309173584">
        <ele>103.959716796875</ele>
        <time>2007-08-23T10:19:04Z</time>
      </trkpt>
      <trkpt lat="42.865090370178223" lon="10.784347057342529">
        <ele>105.4017333984375</ele>
        <time>2007-08-23T10:19:17Z</time>
      </trkpt>
      <trkpt lat="42.865304946899414" lon="10.784153938293457">
        <ele>106.363037109375</ele>
        <time>2007-08-23T10:19:38Z</time>
      </trkpt>
      <trkpt lat="42.86541223526001" lon="10.784175395965576">
        <ele>108.7662353515625</ele>
        <time>2007-08-23T10:19:49Z</time>
      </trkpt>
      <trkpt lat="42.865476608276367" lon="10.784432888031006">
        <ele>115.014892578125</ele>
        <time>2007-08-23T10:20:05Z</time>
      </trkpt>
      <trkpt lat="42.865476608276367" lon="10.784475803375244">
        <ele>115.014892578125</ele>
        <time>2007-08-23T10:20:08Z</time>
      </trkpt>
      <trkpt lat="42.865455150604248" lon="10.784776210784912">
        <ele>116.9375</ele>
        <time>2007-08-23T10:20:17Z</time>
      </trkpt>
      <trkpt lat="42.865562438964844" lon="10.785140991210937">
        <ele>119.3408203125</ele>
        <time>2007-08-23T10:20:25Z</time>
      </trkpt>
      <trkpt lat="42.865798473358154" lon="10.785613059997559">
        <ele>119.3408203125</ele>
        <time>2007-08-23T10:20:37Z</time>
      </trkpt>
      <trkpt lat="42.86616325378418" lon="10.78608512878418">
        <ele>119.3408203125</ele>
        <time>2007-08-23T10:20:50Z</time>
      </trkpt>
      <trkpt lat="42.866485118865967" lon="10.786492824554443">
        <ele>119.8214111328125</ele>
        <time>2007-08-23T10:21:02Z</time>
      </trkpt>
      <trkpt lat="42.866506576538086" lon="10.786514282226563">
        <ele>120.3021240234375</ele>
        <time>2007-08-23T10:21:03Z</time>
      </trkpt>
      <trkpt lat="42.86665678024292" lon="10.786771774291992">
        <ele>122.7054443359375</ele>
        <time>2007-08-23T10:21:17Z</time>
      </trkpt>
      <trkpt lat="42.866806983947754" lon="10.786879062652588">
        <ele>124.6280517578125</ele>
        <time>2007-08-23T10:21:24Z</time>
      </trkpt>
      <trkpt lat="42.867021560668945" lon="10.786921977996826">
        <ele>126.0699462890625</ele>
        <time>2007-08-23T10:21:35Z</time>
      </trkpt>
      <trkpt lat="42.867193222045898" lon="10.786793231964111">
        <ele>127.0313720703125</ele>
        <time>2007-08-23T10:21:48Z</time>
      </trkpt>
      <trkpt lat="42.867257595062256" lon="10.786621570587158">
        <ele>126.5506591796875</ele>
        <time>2007-08-23T10:21:57Z</time>
      </trkpt>
      <trkpt lat="42.867300510406494" lon="10.786278247833252">
        <ele>125.1087646484375</ele>
        <time>2007-08-23T10:22:13Z</time>
      </trkpt>
      <trkpt lat="42.867429256439209" lon="10.785849094390869">
        <ele>125.1087646484375</ele>
        <time>2007-08-23T10:22:34Z</time>
      </trkpt>
      <trkpt lat="42.867600917816162" lon="10.78582763671875">
        <ele>127.511962890625</ele>
        <time>2007-08-23T10:22:43Z</time>
      </trkpt>
      <trkpt lat="42.867965698242187" lon="10.785913467407227">
        <ele>129.4346923828125</ele>
        <time>2007-08-23T10:22:58Z</time>
      </trkpt>
      <trkpt lat="42.868223190307617" lon="10.786042213439941">
        <ele>129.4346923828125</ele>
        <time>2007-08-23T10:23:10Z</time>
      </trkpt>
      <trkpt lat="42.868351936340332" lon="10.786128044128418">
        <ele>128.9541015625</ele>
        <time>2007-08-23T10:23:18Z</time>
      </trkpt>
      <trkpt lat="42.868587970733643" lon="10.786213874816895">
        <ele>128.473388671875</ele>
        <time>2007-08-23T10:23:31Z</time>
      </trkpt>
      <trkpt lat="42.868802547454834" lon="10.786342620849609">
        <ele>127.511962890625</ele>
        <time>2007-08-23T10:23:42Z</time>
      </trkpt>
      <trkpt lat="42.869102954864502" lon="10.786600112915039">
        <ele>128.9541015625</ele>
        <time>2007-08-23T10:23:56Z</time>
      </trkpt>
      <trkpt lat="42.869338989257813" lon="10.786879062652588">
        <ele>130.39599609375</ele>
        <time>2007-08-23T10:24:07Z</time>
      </trkpt>
      <trkpt lat="42.869467735290527" lon="10.787050724029541">
        <ele>130.876708984375</ele>
        <time>2007-08-23T10:24:13Z</time>
      </trkpt>
      <trkpt lat="42.869596481323242" lon="10.786943435668945">
        <ele>132.318603515625</ele>
        <time>2007-08-23T10:24:19Z</time>
      </trkpt>
      <trkpt lat="42.869768142700195" lon="10.78657865524292">
        <ele>134.2412109375</ele>
        <time>2007-08-23T10:24:32Z</time>
      </trkpt>
      <trkpt lat="42.869918346405029" lon="10.785870552062988">
        <ele>134.2412109375</ele>
        <time>2007-08-23T10:24:52Z</time>
      </trkpt>
      <trkpt lat="42.870132923126221" lon="10.784990787506104">
        <ele>134.2412109375</ele>
        <time>2007-08-23T10:25:17Z</time>
      </trkpt>
      <trkpt lat="42.87039041519165" lon="10.784196853637695">
        <ele>133.760498046875</ele>
        <time>2007-08-23T10:25:41Z</time>
      </trkpt>
      <trkpt lat="42.870669364929199" lon="10.784132480621338">
        <ele>134.2412109375</ele>
        <time>2007-08-23T10:25:54Z</time>
      </trkpt>
      <trkpt lat="42.870883941650391" lon="10.784132480621338">
        <ele>134.2412109375</ele>
        <time>2007-08-23T10:26:00Z</time>
      </trkpt>
      <trkpt lat="42.871098518371582" lon="10.784239768981934">
        <ele>134.2412109375</ele>
        <time>2007-08-23T10:26:06Z</time>
      </trkpt>
      <trkpt lat="42.871377468109131" lon="10.784282684326172">
        <ele>134.2412109375</ele>
        <time>2007-08-23T10:26:14Z</time>
      </trkpt>
      <trkpt lat="42.871613502502441" lon="10.784218311309814">
        <ele>134.721923828125</ele>
        <time>2007-08-23T10:26:24Z</time>
      </trkpt>
      <trkpt lat="42.871549129486084" lon="10.78432559967041">
        <ele>136.1639404296875</ele>
        <time>2007-08-23T10:27:12Z</time>
      </trkpt>
      <trkpt lat="42.871592044830322" lon="10.784347057342529">
        <ele>137.125244140625</ele>
        <time>2007-08-23T10:27:18Z</time>
      </trkpt>
      <trkpt lat="42.87165641784668" lon="10.784432888031006">
        <ele>136.6446533203125</ele>
        <time>2007-08-23T10:27:29Z</time>
      </trkpt>
      <trkpt lat="42.871806621551514" lon="10.784711837768555">
        <ele>134.2412109375</ele>
        <time>2007-08-23T10:27:42Z</time>
      </trkpt>
      <trkpt lat="42.871828079223633" lon="10.784733295440674">
        <ele>133.2799072265625</ele>
        <time>2007-08-23T10:27:49Z</time>
      </trkpt>
      <trkpt lat="42.871849536895752" lon="10.784862041473389">
        <ele>132.79931640625</ele>
        <time>2007-08-23T10:28:00Z</time>
      </trkpt>
      <trkpt lat="42.871935367584229" lon="10.785162448883057">
        <ele>131.3572998046875</ele>
        <time>2007-08-23T10:28:11Z</time>
      </trkpt>
      <trkpt lat="42.872192859649658" lon="10.785720348358154">
        <ele>129.4346923828125</ele>
        <time>2007-08-23T10:28:28Z</time>
      </trkpt>
      <trkpt lat="42.872450351715088" lon="10.786042213439941">
        <ele>129.4346923828125</ele>
        <time>2007-08-23T10:28:39Z</time>
      </trkpt>
      <trkpt lat="42.872836589813232" lon="10.786514282226563">
        <ele>129.915283203125</ele>
        <time>2007-08-23T10:28:52Z</time>
      </trkpt>
      <trkpt lat="42.873115539550781" lon="10.786964893341064">
        <ele>127.9925537109375</ele>
        <time>2007-08-23T10:29:03Z</time>
      </trkpt>
      <trkpt lat="42.873351573944092" lon="10.787458419799805">
        <ele>122.2247314453125</ele>
        <time>2007-08-23T10:29:17Z</time>
      </trkpt>
      <trkpt lat="42.873373031616211" lon="10.787672996520996">
        <ele>121.2635498046875</ele>
        <time>2007-08-23T10:29:27Z</time>
      </trkpt>
      <trkpt lat="42.873351573944092" lon="10.787672996520996">
        <ele>120.7828369140625</ele>
        <time>2007-08-23T10:29:37Z</time>
      </trkpt>
      <trkpt lat="42.873308658599854" lon="10.787909030914307">
        <ele>117.418212890625</ele>
        <time>2007-08-23T10:29:48Z</time>
      </trkpt>
      <trkpt lat="42.873351573944092" lon="10.78808069229126">
        <ele>113.09228515625</ele>
        <time>2007-08-23T10:29:53Z</time>
      </trkpt>
      <trkpt lat="42.873566150665283" lon="10.788209438323975">
        <ele>109.7276611328125</ele>
        <time>2007-08-23T10:30:06Z</time>
      </trkpt>
      <trkpt lat="42.873694896697998" lon="10.788209438323975">
        <ele>108.7662353515625</ele>
        <time>2007-08-23T10:30:16Z</time>
      </trkpt>
      <trkpt lat="42.87388801574707" lon="10.788273811340332">
        <ele>108.7662353515625</ele>
        <time>2007-08-23T10:30:32Z</time>
      </trkpt>
      <trkpt lat="42.87388801574707" lon="10.788273811340332">
        <ele>107.8050537109375</ele>
        <time>2007-08-23T10:30:40Z</time>
      </trkpt>
      <trkpt lat="42.874059677124023" lon="10.788402557373047">
        <ele>105.8824462890625</ele>
        <time>2007-08-23T10:31:50Z</time>
      </trkpt>
      <trkpt lat="42.874124050140381" lon="10.788445472717285">
        <ele>105.8824462890625</ele>
        <time>2007-08-23T10:31:53Z</time>
      </trkpt>
      <trkpt lat="42.874209880828857" lon="10.78883171081543">
        <ele>103.959716796875</ele>
        <time>2007-08-23T10:32:08Z</time>
      </trkpt>
      <trkpt lat="42.874295711517334" lon="10.789089202880859">
        <ele>102.998291015625</ele>
        <time>2007-08-23T10:32:17Z</time>
      </trkpt>
      <trkpt lat="42.874360084533691" lon="10.789196491241455">
        <ele>101.07568359375</ele>
        <time>2007-08-23T10:32:27Z</time>
      </trkpt>
      <trkpt lat="42.874488830566406" lon="10.789153575897217">
        <ele>101.07568359375</ele>
        <time>2007-08-23T10:32:57Z</time>
      </trkpt>
      <trkpt lat="42.874574661254883" lon="10.789089202880859">
        <ele>101.07568359375</ele>
        <time>2007-08-23T10:33:05Z</time>
      </trkpt>
      <trkpt lat="42.874832153320312" lon="10.789089202880859">
        <ele>100.5950927734375</ele>
        <time>2007-08-23T10:33:16Z</time>
      </trkpt>
      <trkpt lat="42.875733375549316" lon="10.789046287536621">
        <ele>100.5950927734375</ele>
        <time>2007-08-23T10:33:32Z</time>
      </trkpt>
      <trkpt lat="42.875840663909912" lon="10.78932523727417">
        <ele>100.5950927734375</ele>
        <time>2007-08-23T10:33:37Z</time>
      </trkpt>
      <trkpt lat="42.875862121582031" lon="10.78981876373291">
        <ele>98.6724853515625</ele>
        <time>2007-08-23T10:33:50Z</time>
      </trkpt>
      <trkpt lat="42.87590503692627" lon="10.790183544158936">
        <ele>97.711181640625</ele>
        <time>2007-08-23T10:34:03Z</time>
      </trkpt>
      <trkpt lat="42.875926494598389" lon="10.790226459503174">
        <ele>96.7498779296875</ele>
        <time>2007-08-23T10:34:07Z</time>
      </trkpt>
      <trkpt lat="42.876076698303223" lon="10.790376663208008">
        <ele>96.269287109375</ele>
        <time>2007-08-23T10:34:19Z</time>
      </trkpt>
      <trkpt lat="42.876183986663818" lon="10.790612697601318">
        <ele>94.8271484375</ele>
        <time>2007-08-23T10:34:31Z</time>
      </trkpt>
      <trkpt lat="42.876334190368652" lon="10.790913105010986">
        <ele>93.8658447265625</ele>
        <time>2007-08-23T10:34:44Z</time>
      </trkpt>
      <trkpt lat="42.876462936401367" lon="10.791127681732178">
        <ele>93.8658447265625</ele>
        <time>2007-08-23T10:34:54Z</time>
      </trkpt>
      <trkpt lat="42.876913547515869" lon="10.791513919830322">
        <ele>93.3851318359375</ele>
        <time>2007-08-23T10:35:10Z</time>
      </trkpt>
      <trkpt lat="42.877128124237061" lon="10.792179107666016">
        <ele>90.98193359375</ele>
        <time>2007-08-23T10:35:25Z</time>
      </trkpt>
      <trkpt lat="42.877213954925537" lon="10.792672634124756">
        <ele>87.6171875</ele>
        <time>2007-08-23T10:35:36Z</time>
      </trkpt>
      <trkpt lat="42.877278327941895" lon="10.793187618255615">
        <ele>87.1365966796875</ele>
        <time>2007-08-23T10:35:45Z</time>
      </trkpt>
      <trkpt lat="42.877299785614014" lon="10.793681144714355">
        <ele>85.2139892578125</ele>
        <time>2007-08-23T10:35:55Z</time>
      </trkpt>
      <trkpt lat="42.877128124237061" lon="10.794088840484619">
        <ele>84.7333984375</ele>
        <time>2007-08-23T10:36:05Z</time>
      </trkpt>
      <trkpt lat="42.876999378204346" lon="10.794410705566406">
        <ele>83.77197265625</ele>
        <time>2007-08-23T10:36:12Z</time>
      </trkpt>
      <trkpt lat="42.876849174499512" lon="10.795032978057861">
        <ele>83.2913818359375</ele>
        <time>2007-08-23T10:36:24Z</time>
      </trkpt>
      <trkpt lat="42.876741886138916" lon="10.795483589172363">
        <ele>83.2913818359375</ele>
        <time>2007-08-23T10:36:33Z</time>
      </trkpt>
      <trkpt lat="42.876656055450439" lon="10.796341896057129">
        <ele>82.330078125</ele>
        <time>2007-08-23T10:36:47Z</time>
      </trkpt>
      <trkpt lat="42.876570224761963" lon="10.796577930450439">
        <ele>78.0040283203125</ele>
        <time>2007-08-23T10:37:03Z</time>
      </trkpt>
      <trkpt lat="42.876720428466797" lon="10.796492099761963">
        <ele>74.1588134765625</ele>
        <time>2007-08-23T10:37:11Z</time>
      </trkpt>
      <trkpt lat="42.876870632171631" lon="10.796384811401367">
        <ele>72.7169189453125</ele>
        <time>2007-08-23T10:37:19Z</time>
      </trkpt>
      <trkpt lat="42.877063751220703" lon="10.796213150024414">
        <ele>71.27490234375</ele>
        <time>2007-08-23T10:37:28Z</time>
      </trkpt>
      <trkpt lat="42.877321243286133" lon="10.795998573303223">
        <ele>70.3134765625</ele>
        <time>2007-08-23T10:37:37Z</time>
      </trkpt>
      <trkpt lat="42.87764310836792" lon="10.795741081237793">
        <ele>69.352294921875</ele>
        <time>2007-08-23T10:37:48Z</time>
      </trkpt>
      <trkpt lat="42.87790060043335" lon="10.795505046844482">
        <ele>68.87158203125</ele>
        <time>2007-08-23T10:37:57Z</time>
      </trkpt>
      <trkpt lat="42.878158092498779" lon="10.795290470123291">
        <ele>67.9102783203125</ele>
        <time>2007-08-23T10:38:06Z</time>
      </trkpt>
      <trkpt lat="42.878265380859375" lon="10.795183181762695">
        <ele>67.9102783203125</ele>
        <time>2007-08-23T10:38:09Z</time>
      </trkpt>
      <trkpt lat="42.878565788269043" lon="10.794968605041504">
        <ele>67.4296875</ele>
        <time>2007-08-23T10:38:17Z</time>
      </trkpt>
      <trkpt lat="42.878952026367188" lon="10.794668197631836">
        <ele>67.4296875</ele>
        <time>2007-08-23T10:38:27Z</time>
      </trkpt>
      <trkpt lat="42.879445552825928" lon="10.794281959533691">
        <ele>66.948974609375</ele>
        <time>2007-08-23T10:38:42Z</time>
      </trkpt>
      <trkpt lat="42.879617214202881" lon="10.7940673828125">
        <ele>66.948974609375</ele>
        <time>2007-08-23T10:38:49Z</time>
      </trkpt>
      <trkpt lat="42.879874706268311" lon="10.793788433074951">
        <ele>66.46826171875</ele>
        <time>2007-08-23T10:38:58Z</time>
      </trkpt>
      <trkpt lat="42.880046367645264" lon="10.793509483337402">
        <ele>66.46826171875</ele>
        <time>2007-08-23T10:39:05Z</time>
      </trkpt>
      <trkpt lat="42.88038969039917" lon="10.792994499206543">
        <ele>65.9876708984375</ele>
        <time>2007-08-23T10:39:18Z</time>
      </trkpt>
      <trkpt lat="42.88062572479248" lon="10.792629718780518">
        <ele>65.507080078125</ele>
        <time>2007-08-23T10:39:27Z</time>
      </trkpt>
      <trkpt lat="42.880733013153076" lon="10.792372226715088">
        <ele>65.507080078125</ele>
        <time>2007-08-23T10:39:34Z</time>
      </trkpt>
      <trkpt lat="42.880818843841553" lon="10.792114734649658">
        <ele>64.545654296875</ele>
        <time>2007-08-23T10:39:42Z</time>
      </trkpt>
      <trkpt lat="42.880926132202148" lon="10.791878700256348">
        <ele>64.545654296875</ele>
        <time>2007-08-23T10:39:51Z</time>
      </trkpt>
      <trkpt lat="42.881033420562744" lon="10.791621208190918">
        <ele>67.4296875</ele>
        <time>2007-08-23T10:39:59Z</time>
      </trkpt>
      <trkpt lat="42.88114070892334" lon="10.791406631469727">
        <ele>70.794189453125</ele>
        <time>2007-08-23T10:40:07Z</time>
      </trkpt>
      <trkpt lat="42.881226539611816" lon="10.791277885437012">
        <ele>72.2362060546875</ele>
        <time>2007-08-23T10:40:15Z</time>
      </trkpt>
      <trkpt lat="42.881290912628174" lon="10.791234970092773">
        <ele>72.7169189453125</ele>
        <time>2007-08-23T10:40:23Z</time>
      </trkpt>
      <trkpt lat="42.881290912628174" lon="10.791213512420654">
        <ele>73.1976318359375</ele>
        <time>2007-08-23T10:40:38Z</time>
      </trkpt>
      <trkpt lat="42.881419658660889" lon="10.791127681732178">
        <ele>72.7169189453125</ele>
        <time>2007-08-23T10:40:45Z</time>
      </trkpt>
      <trkpt lat="42.881655693054199" lon="10.791020393371582">
        <ele>71.7554931640625</ele>
        <time>2007-08-23T10:40:51Z</time>
      </trkpt>
      <trkpt lat="42.88189172744751" lon="10.790934562683105">
        <ele>71.27490234375</ele>
        <time>2007-08-23T10:40:57Z</time>
      </trkpt>
      <trkpt lat="42.882192134857178" lon="10.790870189666748">
        <ele>68.390869140625</ele>
        <time>2007-08-23T10:41:06Z</time>
      </trkpt>
      <trkpt lat="42.882342338562012" lon="10.790848731994629">
        <ele>67.4296875</ele>
        <time>2007-08-23T10:41:13Z</time>
      </trkpt>
      <trkpt lat="42.882535457611084" lon="10.790784358978271">
        <ele>66.46826171875</ele>
        <time>2007-08-23T10:41:21Z</time>
      </trkpt>
      <trkpt lat="42.882835865020752" lon="10.790698528289795">
        <ele>65.0263671875</ele>
        <time>2007-08-23T10:41:31Z</time>
      </trkpt>
      <trkpt lat="42.883222103118896" lon="10.790612697601318">
        <ele>62.6229248046875</ele>
        <time>2007-08-23T10:41:42Z</time>
      </trkpt>
      <trkpt lat="42.88362979888916" lon="10.790526866912842">
        <ele>57.3358154296875</ele>
        <time>2007-08-23T10:41:54Z</time>
      </trkpt>
      <trkpt lat="42.883715629577637" lon="10.790505409240723">
        <ele>55.893798828125</ele>
        <time>2007-08-23T10:41:59Z</time>
      </trkpt>
      <trkpt lat="42.883715629577637" lon="10.790483951568604">
        <ele>55.4130859375</ele>
        <time>2007-08-23T10:42:01Z</time>
      </trkpt>
      <trkpt lat="42.883758544921875" lon="10.790376663208008">
        <ele>54.4517822265625</ele>
        <time>2007-08-23T10:42:06Z</time>
      </trkpt>
      <trkpt lat="42.883908748626709" lon="10.790119171142578">
        <ele>49.645263671875</ele>
        <time>2007-08-23T10:42:12Z</time>
      </trkpt>
      <trkpt lat="42.8841233253479" lon="10.789604187011719">
        <ele>47.2418212890625</ele>
        <time>2007-08-23T10:42:20Z</time>
      </trkpt>
      <trkpt lat="42.884402275085449" lon="10.789303779602051">
        <ele>44.3580322265625</ele>
        <time>2007-08-23T10:42:26Z</time>
      </trkpt>
      <trkpt lat="42.884552478790283" lon="10.789196491241455">
        <ele>42.4354248046875</ele>
        <time>2007-08-23T10:42:29Z</time>
      </trkpt>
      <trkpt lat="42.884573936462402" lon="10.789024829864502">
        <ele>40.993408203125</ele>
        <time>2007-08-23T10:42:32Z</time>
      </trkpt>
      <trkpt lat="42.884402275085449" lon="10.788896083831787">
        <ele>39.55126953125</ele>
        <time>2007-08-23T10:42:36Z</time>
      </trkpt>
      <trkpt lat="42.884359359741211" lon="10.788896083831787">
        <ele>39.55126953125</ele>
        <time>2007-08-23T10:42:37Z</time>
      </trkpt>
      <trkpt lat="42.884230613708496" lon="10.788874626159668">
        <ele>39.0706787109375</ele>
        <time>2007-08-23T10:42:39Z</time>
      </trkpt>
      <trkpt lat="42.883908748626709" lon="10.788938999176025">
        <ele>36.66748046875</ele>
        <time>2007-08-23T10:42:44Z</time>
      </trkpt>
      <trkpt lat="42.883801460266113" lon="10.788960456848145">
        <ele>36.186767578125</ele>
        <time>2007-08-23T10:42:46Z</time>
      </trkpt>
      <trkpt lat="42.883608341217041" lon="10.788874626159668">
        <ele>32.822265625</ele>
        <time>2007-08-23T10:42:50Z</time>
      </trkpt>
      <trkpt lat="42.883586883544922" lon="10.788595676422119">
        <ele>29.9381103515625</ele>
        <time>2007-08-23T10:42:54Z</time>
      </trkpt>
      <trkpt lat="42.883694171905518" lon="10.788402557373047">
        <ele>28.9769287109375</ele>
        <time>2007-08-23T10:42:57Z</time>
      </trkpt>
      <trkpt lat="42.883801460266113" lon="10.788187980651855">
        <ele>26.5736083984375</ele>
        <time>2007-08-23T10:43:02Z</time>
      </trkpt>
      <trkpt lat="42.883801460266113" lon="10.788166522979736">
        <ele>26.0928955078125</ele>
        <time>2007-08-23T10:43:03Z</time>
      </trkpt>
      <trkpt lat="42.883844375610352" lon="10.788123607635498">
        <ele>24.6510009765625</ele>
        <time>2007-08-23T10:43:08Z</time>
      </trkpt>
      <trkpt lat="42.883651256561279" lon="10.788059234619141">
        <ele>21.7669677734375</ele>
        <time>2007-08-23T10:43:14Z</time>
      </trkpt>
      <trkpt lat="42.883329391479492" lon="10.787973403930664">
        <ele>19.36376953125</ele>
        <time>2007-08-23T10:43:20Z</time>
      </trkpt>
      <trkpt lat="42.88313627243042" lon="10.78782320022583">
        <ele>18.883056640625</ele>
        <time>2007-08-23T10:43:25Z</time>
      </trkpt>
      <trkpt lat="42.883028984069824" lon="10.787458419799805">
        <ele>18.40234375</ele>
        <time>2007-08-23T10:43:33Z</time>
      </trkpt>
      <trkpt lat="42.882900238037109" lon="10.786943435668945">
        <ele>15.9990234375</ele>
        <time>2007-08-23T10:43:41Z</time>
      </trkpt>
      <trkpt lat="42.883157730102539" lon="10.786857604980469">
        <ele>15.9990234375</ele>
        <time>2007-08-23T10:43:45Z</time>
      </trkpt>
      <trkpt lat="42.883479595184326" lon="10.786943435668945">
        <ele>14.5570068359375</ele>
        <time>2007-08-23T10:43:50Z</time>
      </trkpt>
      <trkpt lat="42.8841233253479" lon="10.787222385406494">
        <ele>12.15380859375</ele>
        <time>2007-08-23T10:44:01Z</time>
      </trkpt>
      <trkpt lat="42.884509563446045" lon="10.787308216094971">
        <ele>11.1925048828125</ele>
        <time>2007-08-23T10:44:10Z</time>
      </trkpt>
      <trkpt lat="42.884788513183594" lon="10.787351131439209">
        <ele>11.1925048828125</ele>
        <time>2007-08-23T10:44:17Z</time>
      </trkpt>
      <trkpt lat="42.884917259216309" lon="10.787200927734375">
        <ele>10.231201171875</ele>
        <time>2007-08-23T10:44:21Z</time>
      </trkpt>
      <trkpt lat="42.885196208953857" lon="10.786428451538086">
        <ele>6.3858642578125</ele>
        <time>2007-08-23T10:44:33Z</time>
      </trkpt>
      <trkpt lat="42.885346412658691" lon="10.785956382751465">
        <ele>4.94384765625</ele>
        <time>2007-08-23T10:44:41Z</time>
      </trkpt>
      <trkpt lat="42.885518074035645" lon="10.78582763671875">
        <ele>5.424560546875</ele>
        <time>2007-08-23T10:44:46Z</time>
      </trkpt>
      <trkpt lat="42.885560989379883" lon="10.785870552062988">
        <ele>5.424560546875</ele>
        <time>2007-08-23T10:44:47Z</time>
      </trkpt>
      <trkpt lat="42.885990142822266" lon="10.786235332489014">
        <ele>4.94384765625</ele>
        <time>2007-08-23T10:45:00Z</time>
      </trkpt>
      <trkpt lat="42.886397838592529" lon="10.786600112915039">
        <ele>3.501953125</ele>
        <time>2007-08-23T10:45:12Z</time>
      </trkpt>
      <trkpt lat="42.886805534362793" lon="10.786964893341064">
        <ele>2.5406494140625</ele>
        <time>2007-08-23T10:45:24Z</time>
      </trkpt>
      <trkpt lat="42.887256145477295" lon="10.787372589111328">
        <ele>1.579345703125</ele>
        <time>2007-08-23T10:45:37Z</time>
      </trkpt>
      <trkpt lat="42.887728214263916" lon="10.787801742553711">
        <ele>0.6180419921875</ele>
        <time>2007-08-23T10:45:50Z</time>
      </trkpt>
      <trkpt lat="42.887964248657227" lon="10.788037776947021">
        <ele>0.6180419921875</ele>
        <time>2007-08-23T10:45:57Z</time>
      </trkpt>
      <trkpt lat="42.888264656066895" lon="10.788552761077881">
        <ele>1.579345703125</ele>
        <time>2007-08-23T10:46:08Z</time>
      </trkpt>
      <trkpt lat="42.888436317443848" lon="10.789196491241455">
        <ele>2.5406494140625</ele>
        <time>2007-08-23T10:46:20Z</time>
      </trkpt>
      <trkpt lat="42.888543605804443" lon="10.789690017700195">
        <ele>3.021240234375</ele>
        <time>2007-08-23T10:46:29Z</time>
      </trkpt>
      <trkpt lat="42.888672351837158" lon="10.790269374847412">
        <ele>3.982666015625</ele>
        <time>2007-08-23T10:46:40Z</time>
      </trkpt>
      <trkpt lat="42.888758182525635" lon="10.790719985961914">
        <ele>4.94384765625</ele>
        <time>2007-08-23T10:46:49Z</time>
      </trkpt>
      <trkpt lat="42.888779640197754" lon="10.790784358978271">
        <ele>4.94384765625</ele>
        <time>2007-08-23T10:46:51Z</time>
      </trkpt>
    </trkseg>
  </trk>

</gpx>
